<?xml version="1.0" encoding="UTF-8" standalone="no" ?>
<gpx xmlns="http://www.topografix.com/GPX/1/1" xmlns:xsi="http://www.w3.org/2001/XMLSchema-instance" xsi:schemaLocation="http://www.topografix.com/GPX/1/1 http://www.topografix.com/GPX/1/1/gpx.xsd" version="1.1" creator="VisuGPX - https://www.visugpx.com">
  <metadata>
    <name>vtt_prn_2010_05_02_dimanche</name>
    <desc><![CDATA[une sortie club dimanche matin: superbe!]]></desc>
  </metadata>
  <trk>
    <name><![CDATA[ACTIVE LOG 006]]></name>
    <trkseg>
      <trkpt lat="44.39436" lon="0.68801">
        <ele>69</ele>
        <time>2010-05-02T07:04:05Z</time>
      </trkpt>
      <trkpt lat="44.39431" lon="0.68797">
        <ele>69</ele>
        <time>2010-05-02T07:04:45Z</time>
      </trkpt>
      <trkpt lat="44.39443" lon="0.68802">
        <ele>69</ele>
        <time>2010-05-02T07:04:55Z</time>
      </trkpt>
      <trkpt lat="44.39441" lon="0.68815">
        <ele>69</ele>
        <time>2010-05-02T07:04:58Z</time>
      </trkpt>
      <trkpt lat="44.39444" lon="0.68874">
        <ele>68</ele>
        <time>2010-05-02T07:05:11Z</time>
      </trkpt>
      <trkpt lat="44.39446" lon="0.68879">
        <ele>68</ele>
        <time>2010-05-02T07:05:13Z</time>
      </trkpt>
      <trkpt lat="44.39455" lon="0.68881">
        <ele>68</ele>
        <time>2010-05-02T07:05:17Z</time>
      </trkpt>
      <trkpt lat="44.39481" lon="0.68886">
        <ele>68</ele>
        <time>2010-05-02T07:05:28Z</time>
      </trkpt>
      <trkpt lat="44.39481" lon="0.68903">
        <ele>67</ele>
        <time>2010-05-02T07:05:33Z</time>
      </trkpt>
      <trkpt lat="44.39462" lon="0.68973">
        <ele>68</ele>
        <time>2010-05-02T07:05:50Z</time>
      </trkpt>
      <trkpt lat="44.39447" lon="0.69033">
        <ele>69</ele>
        <time>2010-05-02T07:06:06Z</time>
      </trkpt>
      <trkpt lat="44.3944" lon="0.69062">
        <ele>70</ele>
        <time>2010-05-02T07:06:16Z</time>
      </trkpt>
      <trkpt lat="44.39429" lon="0.6909">
        <ele>70</ele>
        <time>2010-05-02T07:06:25Z</time>
      </trkpt>
      <trkpt lat="44.39427" lon="0.69106">
        <ele>70</ele>
        <time>2010-05-02T07:06:29Z</time>
      </trkpt>
      <trkpt lat="44.39406" lon="0.69179">
        <ele>71</ele>
        <time>2010-05-02T07:06:48Z</time>
      </trkpt>
      <trkpt lat="44.39377" lon="0.69217">
        <ele>72</ele>
        <time>2010-05-02T07:07:03Z</time>
      </trkpt>
      <trkpt lat="44.39378" lon="0.69253">
        <ele>71</ele>
        <time>2010-05-02T07:07:13Z</time>
      </trkpt>
      <trkpt lat="44.39379" lon="0.69264">
        <ele>71</ele>
        <time>2010-05-02T07:07:16Z</time>
      </trkpt>
      <trkpt lat="44.39374" lon="0.69302">
        <ele>71</ele>
        <time>2010-05-02T07:07:26Z</time>
      </trkpt>
      <trkpt lat="44.39354" lon="0.6935">
        <ele>72</ele>
        <time>2010-05-02T07:07:38Z</time>
      </trkpt>
      <trkpt lat="44.39347" lon="0.69361">
        <ele>72</ele>
        <time>2010-05-02T07:07:41Z</time>
      </trkpt>
      <trkpt lat="44.39332" lon="0.69366">
        <ele>74</ele>
        <time>2010-05-02T07:07:45Z</time>
      </trkpt>
      <trkpt lat="44.39283" lon="0.69352">
        <ele>75</ele>
        <time>2010-05-02T07:07:59Z</time>
      </trkpt>
      <trkpt lat="44.39248" lon="0.69339">
        <ele>76</ele>
        <time>2010-05-02T07:08:12Z</time>
      </trkpt>
      <trkpt lat="44.39208" lon="0.6932">
        <ele>77</ele>
        <time>2010-05-02T07:08:27Z</time>
      </trkpt>
      <trkpt lat="44.39169" lon="0.69303">
        <ele>77</ele>
        <time>2010-05-02T07:08:42Z</time>
      </trkpt>
      <trkpt lat="44.39137" lon="0.69289">
        <ele>80</ele>
        <time>2010-05-02T07:08:56Z</time>
      </trkpt>
      <trkpt lat="44.39098" lon="0.69273">
        <ele>81</ele>
        <time>2010-05-02T07:09:13Z</time>
      </trkpt>
      <trkpt lat="44.39068" lon="0.69263">
        <ele>84</ele>
        <time>2010-05-02T07:09:26Z</time>
      </trkpt>
      <trkpt lat="44.3903" lon="0.69257">
        <ele>86</ele>
        <time>2010-05-02T07:09:42Z</time>
      </trkpt>
      <trkpt lat="44.39017" lon="0.69257">
        <ele>87</ele>
        <time>2010-05-02T07:09:47Z</time>
      </trkpt>
      <trkpt lat="44.39012" lon="0.69268">
        <ele>87</ele>
        <time>2010-05-02T07:09:51Z</time>
      </trkpt>
      <trkpt lat="44.39008" lon="0.69334">
        <ele>88</ele>
        <time>2010-05-02T07:10:08Z</time>
      </trkpt>
      <trkpt lat="44.39012" lon="0.6939">
        <ele>88</ele>
        <time>2010-05-02T07:10:22Z</time>
      </trkpt>
      <trkpt lat="44.39019" lon="0.69446">
        <ele>88</ele>
        <time>2010-05-02T07:10:36Z</time>
      </trkpt>
      <trkpt lat="44.39026" lon="0.69518">
        <ele>89</ele>
        <time>2010-05-02T07:10:54Z</time>
      </trkpt>
      <trkpt lat="44.39037" lon="0.69546">
        <ele>89</ele>
        <time>2010-05-02T07:11:04Z</time>
      </trkpt>
      <trkpt lat="44.39054" lon="0.69548">
        <ele>88</ele>
        <time>2010-05-02T07:11:09Z</time>
      </trkpt>
      <trkpt lat="44.39058" lon="0.69572">
        <ele>88</ele>
        <time>2010-05-02T07:11:16Z</time>
      </trkpt>
      <trkpt lat="44.39055" lon="0.69624">
        <ele>89</ele>
        <time>2010-05-02T07:11:28Z</time>
      </trkpt>
      <trkpt lat="44.39053" lon="0.69647">
        <ele>88</ele>
        <time>2010-05-02T07:11:32Z</time>
      </trkpt>
      <trkpt lat="44.39045" lon="0.69705">
        <ele>89</ele>
        <time>2010-05-02T07:11:42Z</time>
      </trkpt>
      <trkpt lat="44.39044" lon="0.69717">
        <ele>89</ele>
        <time>2010-05-02T07:11:44Z</time>
      </trkpt>
      <trkpt lat="44.39043" lon="0.69727">
        <ele>89</ele>
        <time>2010-05-02T07:11:46Z</time>
      </trkpt>
      <trkpt lat="44.39032" lon="0.69731">
        <ele>89</ele>
        <time>2010-05-02T07:11:53Z</time>
      </trkpt>
      <trkpt lat="44.39032" lon="0.6974">
        <ele>89</ele>
        <time>2010-05-02T07:11:59Z</time>
      </trkpt>
      <trkpt lat="44.39041" lon="0.69743">
        <ele>89</ele>
        <time>2010-05-02T07:12:02Z</time>
      </trkpt>
      <trkpt lat="44.39039" lon="0.69769">
        <ele>88</ele>
        <time>2010-05-02T07:12:10Z</time>
      </trkpt>
      <trkpt lat="44.39026" lon="0.69806">
        <ele>89</ele>
        <time>2010-05-02T07:12:21Z</time>
      </trkpt>
      <trkpt lat="44.39018" lon="0.69832">
        <ele>89</ele>
        <time>2010-05-02T07:12:27Z</time>
      </trkpt>
      <trkpt lat="44.38988" lon="0.69898">
        <ele>89</ele>
        <time>2010-05-02T07:12:42Z</time>
      </trkpt>
      <trkpt lat="44.38965" lon="0.69952">
        <ele>88</ele>
        <time>2010-05-02T07:12:55Z</time>
      </trkpt>
      <trkpt lat="44.38961" lon="0.69977">
        <ele>88</ele>
        <time>2010-05-02T07:13:00Z</time>
      </trkpt>
      <trkpt lat="44.38936" lon="0.70017">
        <ele>89</ele>
        <time>2010-05-02T07:13:11Z</time>
      </trkpt>
      <trkpt lat="44.38905" lon="0.70036">
        <ele>93</ele>
        <time>2010-05-02T07:13:24Z</time>
      </trkpt>
      <trkpt lat="44.38871" lon="0.70053">
        <ele>94</ele>
        <time>2010-05-02T07:13:39Z</time>
      </trkpt>
      <trkpt lat="44.38842" lon="0.70068">
        <ele>95</ele>
        <time>2010-05-02T07:13:52Z</time>
      </trkpt>
      <trkpt lat="44.38815" lon="0.70091">
        <ele>99</ele>
        <time>2010-05-02T07:14:08Z</time>
      </trkpt>
      <trkpt lat="44.38791" lon="0.70102">
        <ele>102</ele>
        <time>2010-05-02T07:14:22Z</time>
      </trkpt>
      <trkpt lat="44.38782" lon="0.701">
        <ele>102</ele>
        <time>2010-05-02T07:14:27Z</time>
      </trkpt>
      <trkpt lat="44.38775" lon="0.70106">
        <ele>103</ele>
        <time>2010-05-02T07:14:33Z</time>
      </trkpt>
      <trkpt lat="44.38775" lon="0.7011">
        <ele>103</ele>
        <time>2010-05-02T07:14:35Z</time>
      </trkpt>
      <trkpt lat="44.38766" lon="0.70143">
        <ele>104</ele>
        <time>2010-05-02T07:14:52Z</time>
      </trkpt>
      <trkpt lat="44.38773" lon="0.7017">
        <ele>106</ele>
        <time>2010-05-02T07:15:05Z</time>
      </trkpt>
      <trkpt lat="44.38773" lon="0.70199">
        <ele>107</ele>
        <time>2010-05-02T07:15:20Z</time>
      </trkpt>
      <trkpt lat="44.38773" lon="0.702">
        <ele>107</ele>
        <time>2010-05-02T07:15:21Z</time>
      </trkpt>
      <trkpt lat="44.38772" lon="0.70209">
        <ele>107</ele>
        <time>2010-05-02T07:15:26Z</time>
      </trkpt>
      <trkpt lat="44.38773" lon="0.70234">
        <ele>109</ele>
        <time>2010-05-02T07:15:39Z</time>
      </trkpt>
      <trkpt lat="44.38773" lon="0.70241">
        <ele>109</ele>
        <time>2010-05-02T07:15:43Z</time>
      </trkpt>
      <trkpt lat="44.38768" lon="0.70279">
        <ele>114</ele>
        <time>2010-05-02T07:16:01Z</time>
      </trkpt>
      <trkpt lat="44.38766" lon="0.70292">
        <ele>115</ele>
        <time>2010-05-02T07:16:07Z</time>
      </trkpt>
      <trkpt lat="44.38764" lon="0.7032">
        <ele>118</ele>
        <time>2010-05-02T07:16:23Z</time>
      </trkpt>
      <trkpt lat="44.38762" lon="0.70335">
        <ele>122</ele>
        <time>2010-05-02T07:16:32Z</time>
      </trkpt>
      <trkpt lat="44.38759" lon="0.70343">
        <ele>123</ele>
        <time>2010-05-02T07:16:41Z</time>
      </trkpt>
      <trkpt lat="44.38754" lon="0.70359">
        <ele>123</ele>
        <time>2010-05-02T07:16:54Z</time>
      </trkpt>
      <trkpt lat="44.38751" lon="0.70372">
        <ele>124</ele>
        <time>2010-05-02T07:17:09Z</time>
      </trkpt>
      <trkpt lat="44.38749" lon="0.70383">
        <ele>131</ele>
        <time>2010-05-02T07:17:20Z</time>
      </trkpt>
      <trkpt lat="44.38742" lon="0.70403">
        <ele>132</ele>
        <time>2010-05-02T07:17:34Z</time>
      </trkpt>
      <trkpt lat="44.3874" lon="0.7041">
        <ele>132</ele>
        <time>2010-05-02T07:17:45Z</time>
      </trkpt>
      <trkpt lat="44.3874" lon="0.70412">
        <ele>132</ele>
        <time>2010-05-02T07:17:50Z</time>
      </trkpt>
      <trkpt lat="44.38737" lon="0.70421">
        <ele>135</ele>
        <time>2010-05-02T07:17:56Z</time>
      </trkpt>
      <trkpt lat="44.3873" lon="0.70433">
        <ele>137</ele>
        <time>2010-05-02T07:18:05Z</time>
      </trkpt>
      <trkpt lat="44.38721" lon="0.70453">
        <ele>139</ele>
        <time>2010-05-02T07:18:18Z</time>
      </trkpt>
      <trkpt lat="44.38716" lon="0.70469">
        <ele>140</ele>
        <time>2010-05-02T07:18:29Z</time>
      </trkpt>
      <trkpt lat="44.3871" lon="0.70475">
        <ele>141</ele>
        <time>2010-05-02T07:18:35Z</time>
      </trkpt>
      <trkpt lat="44.38699" lon="0.70499">
        <ele>143</ele>
        <time>2010-05-02T07:18:51Z</time>
      </trkpt>
      <trkpt lat="44.38692" lon="0.70506">
        <ele>144</ele>
        <time>2010-05-02T07:18:59Z</time>
      </trkpt>
      <trkpt lat="44.38686" lon="0.70512">
        <ele>144</ele>
        <time>2010-05-02T07:19:10Z</time>
      </trkpt>
      <trkpt lat="44.38687" lon="0.70515">
        <ele>144</ele>
        <time>2010-05-02T07:19:38Z</time>
      </trkpt>
      <trkpt lat="44.38688" lon="0.70515">
        <ele>144</ele>
        <time>2010-05-02T07:20:36Z</time>
      </trkpt>
      <trkpt lat="44.38688" lon="0.70516">
        <ele>144</ele>
        <time>2010-05-02T07:21:24Z</time>
      </trkpt>
      <trkpt lat="44.38687" lon="0.70523">
        <ele>143</ele>
        <time>2010-05-02T07:21:28Z</time>
      </trkpt>
      <trkpt lat="44.38677" lon="0.70543">
        <ele>143</ele>
        <time>2010-05-02T07:21:36Z</time>
      </trkpt>
      <trkpt lat="44.38657" lon="0.70582">
        <ele>147</ele>
        <time>2010-05-02T07:21:47Z</time>
      </trkpt>
      <trkpt lat="44.38634" lon="0.7062">
        <ele>145</ele>
        <time>2010-05-02T07:21:57Z</time>
      </trkpt>
      <trkpt lat="44.38607" lon="0.70653">
        <ele>145</ele>
        <time>2010-05-02T07:22:05Z</time>
      </trkpt>
      <trkpt lat="44.38583" lon="0.70701">
        <ele>142</ele>
        <time>2010-05-02T07:22:13Z</time>
      </trkpt>
      <trkpt lat="44.38528" lon="0.70769">
        <ele>135</ele>
        <time>2010-05-02T07:22:25Z</time>
      </trkpt>
      <trkpt lat="44.3853" lon="0.70814">
        <ele>132</ele>
        <time>2010-05-02T07:22:33Z</time>
      </trkpt>
      <trkpt lat="44.38513" lon="0.70824">
        <ele>133</ele>
        <time>2010-05-02T07:22:38Z</time>
      </trkpt>
      <trkpt lat="44.38458" lon="0.70842">
        <ele>131</ele>
        <time>2010-05-02T07:22:52Z</time>
      </trkpt>
      <trkpt lat="44.38454" lon="0.70844">
        <ele>131</ele>
        <time>2010-05-02T07:22:53Z</time>
      </trkpt>
      <trkpt lat="44.38387" lon="0.70849">
        <ele>130</ele>
        <time>2010-05-02T07:23:09Z</time>
      </trkpt>
      <trkpt lat="44.38344" lon="0.70848">
        <ele>131</ele>
        <time>2010-05-02T07:23:21Z</time>
      </trkpt>
      <trkpt lat="44.38318" lon="0.70842">
        <ele>128</ele>
        <time>2010-05-02T07:23:27Z</time>
      </trkpt>
      <trkpt lat="44.38245" lon="0.70817">
        <ele>120</ele>
        <time>2010-05-02T07:23:39Z</time>
      </trkpt>
      <trkpt lat="44.38203" lon="0.70833">
        <ele>113</ele>
        <time>2010-05-02T07:23:45Z</time>
      </trkpt>
      <trkpt lat="44.38109" lon="0.7087">
        <ele>101</ele>
        <time>2010-05-02T07:23:53Z</time>
      </trkpt>
      <trkpt lat="44.38049" lon="0.709">
        <ele>100</ele>
        <time>2010-05-02T07:24:00Z</time>
      </trkpt>
      <trkpt lat="44.38039" lon="0.70933">
        <ele>99</ele>
        <time>2010-05-02T07:24:05Z</time>
      </trkpt>
      <trkpt lat="44.38043" lon="0.70961">
        <ele>99</ele>
        <time>2010-05-02T07:24:13Z</time>
      </trkpt>
      <trkpt lat="44.38042" lon="0.70964">
        <ele>99</ele>
        <time>2010-05-02T07:24:28Z</time>
      </trkpt>
      <trkpt lat="44.38045" lon="0.70968">
        <ele>99</ele>
        <time>2010-05-02T07:24:31Z</time>
      </trkpt>
      <trkpt lat="44.38054" lon="0.70998">
        <ele>98</ele>
        <time>2010-05-02T07:24:37Z</time>
      </trkpt>
      <trkpt lat="44.38065" lon="0.71044">
        <ele>96</ele>
        <time>2010-05-02T07:24:44Z</time>
      </trkpt>
      <trkpt lat="44.3807" lon="0.71065">
        <ele>95</ele>
        <time>2010-05-02T07:24:47Z</time>
      </trkpt>
      <trkpt lat="44.38101" lon="0.71178">
        <ele>86</ele>
        <time>2010-05-02T07:25:02Z</time>
      </trkpt>
      <trkpt lat="44.38121" lon="0.71254">
        <ele>80</ele>
        <time>2010-05-02T07:25:14Z</time>
      </trkpt>
      <trkpt lat="44.38125" lon="0.7127">
        <ele>80</ele>
        <time>2010-05-02T07:25:20Z</time>
      </trkpt>
      <trkpt lat="44.38138" lon="0.71303">
        <ele>79</ele>
        <time>2010-05-02T07:25:28Z</time>
      </trkpt>
      <trkpt lat="44.38131" lon="0.71422">
        <ele>75</ele>
        <time>2010-05-02T07:25:40Z</time>
      </trkpt>
      <trkpt lat="44.38102" lon="0.71505">
        <ele>77</ele>
        <time>2010-05-02T07:25:51Z</time>
      </trkpt>
      <trkpt lat="44.38081" lon="0.7156">
        <ele>79</ele>
        <time>2010-05-02T07:26:03Z</time>
      </trkpt>
      <trkpt lat="44.38073" lon="0.71591">
        <ele>81</ele>
        <time>2010-05-02T07:26:14Z</time>
      </trkpt>
      <trkpt lat="44.38067" lon="0.71621">
        <ele>83</ele>
        <time>2010-05-02T07:26:28Z</time>
      </trkpt>
      <trkpt lat="44.38065" lon="0.71629">
        <ele>83</ele>
        <time>2010-05-02T07:26:32Z</time>
      </trkpt>
      <trkpt lat="44.38062" lon="0.71651">
        <ele>84</ele>
        <time>2010-05-02T07:26:43Z</time>
      </trkpt>
      <trkpt lat="44.3806" lon="0.71659">
        <ele>84</ele>
        <time>2010-05-02T07:26:47Z</time>
      </trkpt>
      <trkpt lat="44.38055" lon="0.71679">
        <ele>88</ele>
        <time>2010-05-02T07:26:57Z</time>
      </trkpt>
      <trkpt lat="44.38051" lon="0.71711">
        <ele>89</ele>
        <time>2010-05-02T07:27:13Z</time>
      </trkpt>
      <trkpt lat="44.38048" lon="0.71721">
        <ele>89</ele>
        <time>2010-05-02T07:27:19Z</time>
      </trkpt>
      <trkpt lat="44.38044" lon="0.71742">
        <ele>90</ele>
        <time>2010-05-02T07:27:30Z</time>
      </trkpt>
      <trkpt lat="44.38041" lon="0.71756">
        <ele>94</ele>
        <time>2010-05-02T07:27:38Z</time>
      </trkpt>
      <trkpt lat="44.38038" lon="0.71763">
        <ele>94</ele>
        <time>2010-05-02T07:27:43Z</time>
      </trkpt>
      <trkpt lat="44.38047" lon="0.71775">
        <ele>94</ele>
        <time>2010-05-02T07:27:55Z</time>
      </trkpt>
      <trkpt lat="44.38049" lon="0.71778">
        <ele>94</ele>
        <time>2010-05-02T07:28:13Z</time>
      </trkpt>
      <trkpt lat="44.38051" lon="0.71778">
        <ele>94</ele>
        <time>2010-05-02T07:29:22Z</time>
      </trkpt>
      <trkpt lat="44.38051" lon="0.71778">
        <ele>94</ele>
        <time>2010-05-02T07:29:54Z</time>
      </trkpt>
      <trkpt lat="44.38056" lon="0.71783">
        <ele>94</ele>
        <time>2010-05-02T07:29:59Z</time>
      </trkpt>
      <trkpt lat="44.38072" lon="0.71799">
        <ele>95</ele>
        <time>2010-05-02T07:30:06Z</time>
      </trkpt>
      <trkpt lat="44.38091" lon="0.71817">
        <ele>94</ele>
        <time>2010-05-02T07:30:11Z</time>
      </trkpt>
      <trkpt lat="44.38123" lon="0.71801">
        <ele>92</ele>
        <time>2010-05-02T07:30:19Z</time>
      </trkpt>
      <trkpt lat="44.38134" lon="0.71809">
        <ele>92</ele>
        <time>2010-05-02T07:30:23Z</time>
      </trkpt>
      <trkpt lat="44.38161" lon="0.71829">
        <ele>93</ele>
        <time>2010-05-02T07:30:34Z</time>
      </trkpt>
      <trkpt lat="44.38178" lon="0.71837">
        <ele>96</ele>
        <time>2010-05-02T07:30:41Z</time>
      </trkpt>
      <trkpt lat="44.38181" lon="0.71846">
        <ele>97</ele>
        <time>2010-05-02T07:30:45Z</time>
      </trkpt>
      <trkpt lat="44.38169" lon="0.71864">
        <ele>98</ele>
        <time>2010-05-02T07:30:54Z</time>
      </trkpt>
      <trkpt lat="44.38153" lon="0.71884">
        <ele>98</ele>
        <time>2010-05-02T07:31:07Z</time>
      </trkpt>
      <trkpt lat="44.38151" lon="0.71887">
        <ele>98</ele>
        <time>2010-05-02T07:31:09Z</time>
      </trkpt>
      <trkpt lat="44.38142" lon="0.71903">
        <ele>99</ele>
        <time>2010-05-02T07:31:20Z</time>
      </trkpt>
      <trkpt lat="44.38129" lon="0.71921">
        <ele>102</ele>
        <time>2010-05-02T07:31:32Z</time>
      </trkpt>
      <trkpt lat="44.38112" lon="0.71951">
        <ele>103</ele>
        <time>2010-05-02T07:31:47Z</time>
      </trkpt>
      <trkpt lat="44.38102" lon="0.71971">
        <ele>103</ele>
        <time>2010-05-02T07:31:56Z</time>
      </trkpt>
      <trkpt lat="44.38096" lon="0.71991">
        <ele>103</ele>
        <time>2010-05-02T07:32:06Z</time>
      </trkpt>
      <trkpt lat="44.38095" lon="0.71995">
        <ele>102</ele>
        <time>2010-05-02T07:32:08Z</time>
      </trkpt>
      <trkpt lat="44.3809" lon="0.72012">
        <ele>104</ele>
        <time>2010-05-02T07:32:17Z</time>
      </trkpt>
      <trkpt lat="44.38089" lon="0.72014">
        <ele>104</ele>
        <time>2010-05-02T07:32:18Z</time>
      </trkpt>
      <trkpt lat="44.38087" lon="0.7202">
        <ele>105</ele>
        <time>2010-05-02T07:32:21Z</time>
      </trkpt>
      <trkpt lat="44.38082" lon="0.72043">
        <ele>102</ele>
        <time>2010-05-02T07:32:31Z</time>
      </trkpt>
      <trkpt lat="44.38076" lon="0.72078">
        <ele>103</ele>
        <time>2010-05-02T07:32:44Z</time>
      </trkpt>
      <trkpt lat="44.38067" lon="0.72114">
        <ele>104</ele>
        <time>2010-05-02T07:32:57Z</time>
      </trkpt>
      <trkpt lat="44.38064" lon="0.72153">
        <ele>105</ele>
        <time>2010-05-02T07:33:11Z</time>
      </trkpt>
      <trkpt lat="44.38068" lon="0.72202">
        <ele>107</ele>
        <time>2010-05-02T07:33:27Z</time>
      </trkpt>
      <trkpt lat="44.38068" lon="0.72236">
        <ele>107</ele>
        <time>2010-05-02T07:33:39Z</time>
      </trkpt>
      <trkpt lat="44.38064" lon="0.72272">
        <ele>108</ele>
        <time>2010-05-02T07:33:51Z</time>
      </trkpt>
      <trkpt lat="44.38059" lon="0.72307">
        <ele>109</ele>
        <time>2010-05-02T07:34:03Z</time>
      </trkpt>
      <trkpt lat="44.38051" lon="0.72343">
        <ele>111</ele>
        <time>2010-05-02T07:34:15Z</time>
      </trkpt>
      <trkpt lat="44.38046" lon="0.72385">
        <ele>112</ele>
        <time>2010-05-02T07:34:29Z</time>
      </trkpt>
      <trkpt lat="44.3805" lon="0.72426">
        <ele>116</ele>
        <time>2010-05-02T07:34:45Z</time>
      </trkpt>
      <trkpt lat="44.38061" lon="0.72455">
        <ele>117</ele>
        <time>2010-05-02T07:34:59Z</time>
      </trkpt>
      <trkpt lat="44.38066" lon="0.72476">
        <ele>118</ele>
        <time>2010-05-02T07:35:09Z</time>
      </trkpt>
      <trkpt lat="44.38067" lon="0.72493">
        <ele>119</ele>
        <time>2010-05-02T07:35:17Z</time>
      </trkpt>
      <trkpt lat="44.38067" lon="0.72498">
        <ele>119</ele>
        <time>2010-05-02T07:35:21Z</time>
      </trkpt>
      <trkpt lat="44.38068" lon="0.72491">
        <ele>119</ele>
        <time>2010-05-02T07:35:30Z</time>
      </trkpt>
      <trkpt lat="44.38069" lon="0.72488">
        <ele>119</ele>
        <time>2010-05-02T07:36:20Z</time>
      </trkpt>
      <trkpt lat="44.38069" lon="0.72491">
        <ele>119</ele>
        <time>2010-05-02T07:36:24Z</time>
      </trkpt>
      <trkpt lat="44.3807" lon="0.725">
        <ele>119</ele>
        <time>2010-05-02T07:36:29Z</time>
      </trkpt>
      <trkpt lat="44.3807" lon="0.72507">
        <ele>121</ele>
        <time>2010-05-02T07:36:32Z</time>
      </trkpt>
      <trkpt lat="44.38072" lon="0.72539">
        <ele>121</ele>
        <time>2010-05-02T07:36:46Z</time>
      </trkpt>
      <trkpt lat="44.38076" lon="0.72566">
        <ele>122</ele>
        <time>2010-05-02T07:36:58Z</time>
      </trkpt>
      <trkpt lat="44.3808" lon="0.72597">
        <ele>123</ele>
        <time>2010-05-02T07:37:11Z</time>
      </trkpt>
      <trkpt lat="44.38083" lon="0.72623">
        <ele>124</ele>
        <time>2010-05-02T07:37:23Z</time>
      </trkpt>
      <trkpt lat="44.38088" lon="0.72654">
        <ele>126</ele>
        <time>2010-05-02T07:37:36Z</time>
      </trkpt>
      <trkpt lat="44.38094" lon="0.72684">
        <ele>128</ele>
        <time>2010-05-02T07:37:50Z</time>
      </trkpt>
      <trkpt lat="44.38105" lon="0.72721">
        <ele>129</ele>
        <time>2010-05-02T07:38:08Z</time>
      </trkpt>
      <trkpt lat="44.38109" lon="0.72736">
        <ele>130</ele>
        <time>2010-05-02T07:38:16Z</time>
      </trkpt>
      <trkpt lat="44.38116" lon="0.72755">
        <ele>132</ele>
        <time>2010-05-02T07:38:26Z</time>
      </trkpt>
      <trkpt lat="44.38129" lon="0.72794">
        <ele>133</ele>
        <time>2010-05-02T07:38:41Z</time>
      </trkpt>
      <trkpt lat="44.38142" lon="0.72838">
        <ele>137</ele>
        <time>2010-05-02T07:38:56Z</time>
      </trkpt>
      <trkpt lat="44.38144" lon="0.72852">
        <ele>137</ele>
        <time>2010-05-02T07:39:09Z</time>
      </trkpt>
      <trkpt lat="44.38154" lon="0.72872">
        <ele>138</ele>
        <time>2010-05-02T07:39:43Z</time>
      </trkpt>
      <trkpt lat="44.38166" lon="0.72919">
        <ele>139</ele>
        <time>2010-05-02T07:39:59Z</time>
      </trkpt>
      <trkpt lat="44.38179" lon="0.72959">
        <ele>142</ele>
        <time>2010-05-02T07:40:15Z</time>
      </trkpt>
      <trkpt lat="44.3819" lon="0.72992">
        <ele>142</ele>
        <time>2010-05-02T07:40:28Z</time>
      </trkpt>
      <trkpt lat="44.38202" lon="0.73033">
        <ele>144</ele>
        <time>2010-05-02T07:40:44Z</time>
      </trkpt>
      <trkpt lat="44.38217" lon="0.73078">
        <ele>145</ele>
        <time>2010-05-02T07:41:01Z</time>
      </trkpt>
      <trkpt lat="44.38227" lon="0.73117">
        <ele>149</ele>
        <time>2010-05-02T07:41:17Z</time>
      </trkpt>
      <trkpt lat="44.38223" lon="0.73122">
        <ele>149</ele>
        <time>2010-05-02T07:41:21Z</time>
      </trkpt>
      <trkpt lat="44.38201" lon="0.73126">
        <ele>150</ele>
        <time>2010-05-02T07:41:36Z</time>
      </trkpt>
      <trkpt lat="44.38187" lon="0.73128">
        <ele>150</ele>
        <time>2010-05-02T07:41:48Z</time>
      </trkpt>
      <trkpt lat="44.38175" lon="0.73131">
        <ele>150</ele>
        <time>2010-05-02T07:41:59Z</time>
      </trkpt>
      <trkpt lat="44.38158" lon="0.73137">
        <ele>155</ele>
        <time>2010-05-02T07:42:15Z</time>
      </trkpt>
      <trkpt lat="44.38139" lon="0.73141">
        <ele>157</ele>
        <time>2010-05-02T07:42:29Z</time>
      </trkpt>
      <trkpt lat="44.38118" lon="0.73146">
        <ele>159</ele>
        <time>2010-05-02T07:42:48Z</time>
      </trkpt>
      <trkpt lat="44.38114" lon="0.73147">
        <ele>160</ele>
        <time>2010-05-02T07:42:52Z</time>
      </trkpt>
      <trkpt lat="44.38104" lon="0.7315">
        <ele>161</ele>
        <time>2010-05-02T07:43:01Z</time>
      </trkpt>
      <trkpt lat="44.38098" lon="0.73152">
        <ele>163</ele>
        <time>2010-05-02T07:43:08Z</time>
      </trkpt>
      <trkpt lat="44.38088" lon="0.73154">
        <ele>164</ele>
        <time>2010-05-02T07:43:19Z</time>
      </trkpt>
      <trkpt lat="44.38083" lon="0.73158">
        <ele>171</ele>
        <time>2010-05-02T07:43:25Z</time>
      </trkpt>
      <trkpt lat="44.3808" lon="0.73163">
        <ele>170</ele>
        <time>2010-05-02T07:43:29Z</time>
      </trkpt>
      <trkpt lat="44.38072" lon="0.73178">
        <ele>174</ele>
        <time>2010-05-02T07:43:42Z</time>
      </trkpt>
      <trkpt lat="44.38066" lon="0.73191">
        <ele>176</ele>
        <time>2010-05-02T07:43:52Z</time>
      </trkpt>
      <trkpt lat="44.38061" lon="0.73204">
        <ele>177</ele>
        <time>2010-05-02T07:44:02Z</time>
      </trkpt>
      <trkpt lat="44.38054" lon="0.73222">
        <ele>178</ele>
        <time>2010-05-02T07:44:14Z</time>
      </trkpt>
      <trkpt lat="44.38052" lon="0.73225">
        <ele>178</ele>
        <time>2010-05-02T07:44:17Z</time>
      </trkpt>
      <trkpt lat="44.38048" lon="0.73238">
        <ele>178</ele>
        <time>2010-05-02T07:44:27Z</time>
      </trkpt>
      <trkpt lat="44.38042" lon="0.73251">
        <ele>179</ele>
        <time>2010-05-02T07:44:38Z</time>
      </trkpt>
      <trkpt lat="44.38038" lon="0.73253">
        <ele>179</ele>
        <time>2010-05-02T07:44:41Z</time>
      </trkpt>
      <trkpt lat="44.38037" lon="0.73246">
        <ele>180</ele>
        <time>2010-05-02T07:44:50Z</time>
      </trkpt>
      <trkpt lat="44.38037" lon="0.7324">
        <ele>180</ele>
        <time>2010-05-02T07:44:55Z</time>
      </trkpt>
      <trkpt lat="44.3804" lon="0.73223">
        <ele>180</ele>
        <time>2010-05-02T07:45:08Z</time>
      </trkpt>
      <trkpt lat="44.3804" lon="0.73222">
        <ele>180</ele>
        <time>2010-05-02T07:45:09Z</time>
      </trkpt>
      <trkpt lat="44.38038" lon="0.73213">
        <ele>180</ele>
        <time>2010-05-02T07:45:15Z</time>
      </trkpt>
      <trkpt lat="44.38038" lon="0.7321">
        <ele>180</ele>
        <time>2010-05-02T07:45:17Z</time>
      </trkpt>
      <trkpt lat="44.38035" lon="0.73206">
        <ele>181</ele>
        <time>2010-05-02T07:45:28Z</time>
      </trkpt>
      <trkpt lat="44.3803" lon="0.73212">
        <ele>181</ele>
        <time>2010-05-02T07:46:45Z</time>
      </trkpt>
      <trkpt lat="44.3803" lon="0.7321">
        <ele>181</ele>
        <time>2010-05-02T07:47:27Z</time>
      </trkpt>
      <trkpt lat="44.38025" lon="0.73216">
        <ele>182</ele>
        <time>2010-05-02T07:47:38Z</time>
      </trkpt>
      <trkpt lat="44.38022" lon="0.73241">
        <ele>184</ele>
        <time>2010-05-02T07:47:52Z</time>
      </trkpt>
      <trkpt lat="44.38021" lon="0.73243">
        <ele>184</ele>
        <time>2010-05-02T07:47:53Z</time>
      </trkpt>
      <trkpt lat="44.38014" lon="0.73274">
        <ele>183</ele>
        <time>2010-05-02T07:48:06Z</time>
      </trkpt>
      <trkpt lat="44.38009" lon="0.73297">
        <ele>182</ele>
        <time>2010-05-02T07:48:15Z</time>
      </trkpt>
      <trkpt lat="44.38004" lon="0.73322">
        <ele>186</ele>
        <time>2010-05-02T07:48:25Z</time>
      </trkpt>
      <trkpt lat="44.38001" lon="0.73352">
        <ele>185</ele>
        <time>2010-05-02T07:48:35Z</time>
      </trkpt>
      <trkpt lat="44.38002" lon="0.73388">
        <ele>183</ele>
        <time>2010-05-02T07:48:44Z</time>
      </trkpt>
      <trkpt lat="44.38003" lon="0.73402">
        <ele>185</ele>
        <time>2010-05-02T07:48:47Z</time>
      </trkpt>
      <trkpt lat="44.38008" lon="0.73448">
        <ele>185</ele>
        <time>2010-05-02T07:48:58Z</time>
      </trkpt>
      <trkpt lat="44.38008" lon="0.73456">
        <ele>185</ele>
        <time>2010-05-02T07:49:00Z</time>
      </trkpt>
      <trkpt lat="44.38014" lon="0.73508">
        <ele>190</ele>
        <time>2010-05-02T07:49:13Z</time>
      </trkpt>
      <trkpt lat="44.3802" lon="0.73559">
        <ele>190</ele>
        <time>2010-05-02T07:49:25Z</time>
      </trkpt>
      <trkpt lat="44.38021" lon="0.73567">
        <ele>191</ele>
        <time>2010-05-02T07:49:27Z</time>
      </trkpt>
      <trkpt lat="44.38008" lon="0.73572">
        <ele>192</ele>
        <time>2010-05-02T07:49:35Z</time>
      </trkpt>
      <trkpt lat="44.37996" lon="0.73573">
        <ele>194</ele>
        <time>2010-05-02T07:49:41Z</time>
      </trkpt>
      <trkpt lat="44.37987" lon="0.7357">
        <ele>194</ele>
        <time>2010-05-02T07:49:46Z</time>
      </trkpt>
      <trkpt lat="44.37963" lon="0.73571">
        <ele>195</ele>
        <time>2010-05-02T07:49:58Z</time>
      </trkpt>
      <trkpt lat="44.37961" lon="0.73571">
        <ele>195</ele>
        <time>2010-05-02T07:49:59Z</time>
      </trkpt>
      <trkpt lat="44.37955" lon="0.7357">
        <ele>195</ele>
        <time>2010-05-02T07:50:03Z</time>
      </trkpt>
      <trkpt lat="44.37949" lon="0.7357">
        <ele>195</ele>
        <time>2010-05-02T07:50:07Z</time>
      </trkpt>
      <trkpt lat="44.37933" lon="0.73571">
        <ele>196</ele>
        <time>2010-05-02T07:50:16Z</time>
      </trkpt>
      <trkpt lat="44.37908" lon="0.73577">
        <ele>197</ele>
        <time>2010-05-02T07:50:29Z</time>
      </trkpt>
      <trkpt lat="44.37893" lon="0.73584">
        <ele>197</ele>
        <time>2010-05-02T07:50:39Z</time>
      </trkpt>
      <trkpt lat="44.37884" lon="0.73591">
        <ele>197</ele>
        <time>2010-05-02T07:50:45Z</time>
      </trkpt>
      <trkpt lat="44.37869" lon="0.736">
        <ele>197</ele>
        <time>2010-05-02T07:50:54Z</time>
      </trkpt>
      <trkpt lat="44.37862" lon="0.73612">
        <ele>197</ele>
        <time>2010-05-02T07:51:03Z</time>
      </trkpt>
      <trkpt lat="44.37884" lon="0.73631">
        <ele>197</ele>
        <time>2010-05-02T07:51:15Z</time>
      </trkpt>
      <trkpt lat="44.37912" lon="0.73648">
        <ele>197</ele>
        <time>2010-05-02T07:51:27Z</time>
      </trkpt>
      <trkpt lat="44.37954" lon="0.73667">
        <ele>197</ele>
        <time>2010-05-02T07:51:40Z</time>
      </trkpt>
      <trkpt lat="44.38016" lon="0.73692">
        <ele>195</ele>
        <time>2010-05-02T07:51:56Z</time>
      </trkpt>
      <trkpt lat="44.38071" lon="0.73717">
        <ele>195</ele>
        <time>2010-05-02T07:52:11Z</time>
      </trkpt>
      <trkpt lat="44.38128" lon="0.73741">
        <ele>197</ele>
        <time>2010-05-02T07:52:27Z</time>
      </trkpt>
      <trkpt lat="44.38179" lon="0.73766">
        <ele>201</ele>
        <time>2010-05-02T07:52:43Z</time>
      </trkpt>
      <trkpt lat="44.382" lon="0.73777">
        <ele>201</ele>
        <time>2010-05-02T07:52:51Z</time>
      </trkpt>
      <trkpt lat="44.38196" lon="0.73802">
        <ele>202</ele>
        <time>2010-05-02T07:52:59Z</time>
      </trkpt>
      <trkpt lat="44.38181" lon="0.7384">
        <ele>203</ele>
        <time>2010-05-02T07:53:11Z</time>
      </trkpt>
      <trkpt lat="44.38159" lon="0.7389">
        <ele>200</ele>
        <time>2010-05-02T07:53:25Z</time>
      </trkpt>
      <trkpt lat="44.3815" lon="0.73933">
        <ele>198</ele>
        <time>2010-05-02T07:53:33Z</time>
      </trkpt>
      <trkpt lat="44.38146" lon="0.73959">
        <ele>196</ele>
        <time>2010-05-02T07:53:37Z</time>
      </trkpt>
      <trkpt lat="44.38147" lon="0.73986">
        <ele>196</ele>
        <time>2010-05-02T07:53:41Z</time>
      </trkpt>
      <trkpt lat="44.3817" lon="0.74058">
        <ele>196</ele>
        <time>2010-05-02T07:53:53Z</time>
      </trkpt>
      <trkpt lat="44.38198" lon="0.74149">
        <ele>196</ele>
        <time>2010-05-02T07:54:11Z</time>
      </trkpt>
      <trkpt lat="44.38208" lon="0.74173">
        <ele>194</ele>
        <time>2010-05-02T07:54:16Z</time>
      </trkpt>
      <trkpt lat="44.38213" lon="0.74182">
        <ele>194</ele>
        <time>2010-05-02T07:54:18Z</time>
      </trkpt>
      <trkpt lat="44.38237" lon="0.74218">
        <ele>195</ele>
        <time>2010-05-02T07:54:30Z</time>
      </trkpt>
      <trkpt lat="44.38247" lon="0.74237">
        <ele>196</ele>
        <time>2010-05-02T07:54:37Z</time>
      </trkpt>
      <trkpt lat="44.38258" lon="0.74253">
        <ele>200</ele>
        <time>2010-05-02T07:54:43Z</time>
      </trkpt>
      <trkpt lat="44.38262" lon="0.74265">
        <ele>200</ele>
        <time>2010-05-02T07:54:48Z</time>
      </trkpt>
      <trkpt lat="44.38267" lon="0.74276">
        <ele>200</ele>
        <time>2010-05-02T07:54:52Z</time>
      </trkpt>
      <trkpt lat="44.38271" lon="0.74287">
        <ele>200</ele>
        <time>2010-05-02T07:54:57Z</time>
      </trkpt>
      <trkpt lat="44.38279" lon="0.74307">
        <ele>199</ele>
        <time>2010-05-02T07:55:06Z</time>
      </trkpt>
      <trkpt lat="44.38285" lon="0.74328">
        <ele>199</ele>
        <time>2010-05-02T07:55:15Z</time>
      </trkpt>
      <trkpt lat="44.38288" lon="0.74342">
        <ele>198</ele>
        <time>2010-05-02T07:55:21Z</time>
      </trkpt>
      <trkpt lat="44.38299" lon="0.7438">
        <ele>199</ele>
        <time>2010-05-02T07:55:34Z</time>
      </trkpt>
      <trkpt lat="44.38301" lon="0.7439">
        <ele>199</ele>
        <time>2010-05-02T07:55:38Z</time>
      </trkpt>
      <trkpt lat="44.38308" lon="0.7441">
        <ele>200</ele>
        <time>2010-05-02T07:55:47Z</time>
      </trkpt>
      <trkpt lat="44.38315" lon="0.74415">
        <ele>201</ele>
        <time>2010-05-02T07:55:54Z</time>
      </trkpt>
      <trkpt lat="44.3831" lon="0.74415">
        <ele>200</ele>
        <time>2010-05-02T07:55:59Z</time>
      </trkpt>
      <trkpt lat="44.38311" lon="0.74408">
        <ele>200</ele>
        <time>2010-05-02T07:56:10Z</time>
      </trkpt>
      <trkpt lat="44.38316" lon="0.74404">
        <ele>201</ele>
        <time>2010-05-02T07:56:19Z</time>
      </trkpt>
      <trkpt lat="44.38316" lon="0.74404">
        <ele>201</ele>
        <time>2010-05-02T07:56:21Z</time>
      </trkpt>
      <trkpt lat="44.383" lon="0.74417">
        <ele>199</ele>
        <time>2010-05-02T07:56:28Z</time>
      </trkpt>
      <trkpt lat="44.38275" lon="0.74451">
        <ele>197</ele>
        <time>2010-05-02T07:56:39Z</time>
      </trkpt>
      <trkpt lat="44.38257" lon="0.74474">
        <ele>196</ele>
        <time>2010-05-02T07:56:48Z</time>
      </trkpt>
      <trkpt lat="44.3823" lon="0.74502">
        <ele>189</ele>
        <time>2010-05-02T07:56:58Z</time>
      </trkpt>
      <trkpt lat="44.38209" lon="0.74529">
        <ele>186</ele>
        <time>2010-05-02T07:57:08Z</time>
      </trkpt>
      <trkpt lat="44.38196" lon="0.74572">
        <ele>185</ele>
        <time>2010-05-02T07:57:20Z</time>
      </trkpt>
      <trkpt lat="44.38196" lon="0.74582">
        <ele>185</ele>
        <time>2010-05-02T07:57:23Z</time>
      </trkpt>
      <trkpt lat="44.38191" lon="0.74617">
        <ele>186</ele>
        <time>2010-05-02T07:57:34Z</time>
      </trkpt>
      <trkpt lat="44.38193" lon="0.7463">
        <ele>186</ele>
        <time>2010-05-02T07:57:37Z</time>
      </trkpt>
      <trkpt lat="44.38199" lon="0.74648">
        <ele>186</ele>
        <time>2010-05-02T07:57:43Z</time>
      </trkpt>
      <trkpt lat="44.38203" lon="0.74662">
        <ele>186</ele>
        <time>2010-05-02T07:57:50Z</time>
      </trkpt>
      <trkpt lat="44.38219" lon="0.74694">
        <ele>184</ele>
        <time>2010-05-02T07:58:02Z</time>
      </trkpt>
      <trkpt lat="44.38224" lon="0.747">
        <ele>184</ele>
        <time>2010-05-02T07:58:05Z</time>
      </trkpt>
      <trkpt lat="44.38239" lon="0.74708">
        <ele>185</ele>
        <time>2010-05-02T07:58:13Z</time>
      </trkpt>
      <trkpt lat="44.38253" lon="0.74751">
        <ele>188</ele>
        <time>2010-05-02T07:58:24Z</time>
      </trkpt>
      <trkpt lat="44.38257" lon="0.74767">
        <ele>189</ele>
        <time>2010-05-02T07:58:27Z</time>
      </trkpt>
      <trkpt lat="44.38262" lon="0.74784">
        <ele>189</ele>
        <time>2010-05-02T07:58:30Z</time>
      </trkpt>
      <trkpt lat="44.38276" lon="0.74845">
        <ele>183</ele>
        <time>2010-05-02T07:58:42Z</time>
      </trkpt>
      <trkpt lat="44.38275" lon="0.74858">
        <ele>183</ele>
        <time>2010-05-02T07:58:51Z</time>
      </trkpt>
      <trkpt lat="44.38275" lon="0.74861">
        <ele>184</ele>
        <time>2010-05-02T07:58:54Z</time>
      </trkpt>
      <trkpt lat="44.38273" lon="0.749">
        <ele>181</ele>
        <time>2010-05-02T07:59:02Z</time>
      </trkpt>
      <trkpt lat="44.38265" lon="0.74954">
        <ele>179</ele>
        <time>2010-05-02T07:59:09Z</time>
      </trkpt>
      <trkpt lat="44.38262" lon="0.75003">
        <ele>175</ele>
        <time>2010-05-02T07:59:18Z</time>
      </trkpt>
      <trkpt lat="44.38262" lon="0.75012">
        <ele>176</ele>
        <time>2010-05-02T07:59:21Z</time>
      </trkpt>
      <trkpt lat="44.38259" lon="0.75024">
        <ele>177</ele>
        <time>2010-05-02T07:59:29Z</time>
      </trkpt>
      <trkpt lat="44.3826" lon="0.75044">
        <ele>178</ele>
        <time>2010-05-02T07:59:35Z</time>
      </trkpt>
      <trkpt lat="44.38266" lon="0.75067">
        <ele>177</ele>
        <time>2010-05-02T07:59:48Z</time>
      </trkpt>
      <trkpt lat="44.38268" lon="0.75075">
        <ele>177</ele>
        <time>2010-05-02T07:59:52Z</time>
      </trkpt>
      <trkpt lat="44.38274" lon="0.75086">
        <ele>177</ele>
        <time>2010-05-02T07:59:58Z</time>
      </trkpt>
      <trkpt lat="44.38278" lon="0.75094">
        <ele>178</ele>
        <time>2010-05-02T08:00:10Z</time>
      </trkpt>
      <trkpt lat="44.38282" lon="0.75114">
        <ele>179</ele>
        <time>2010-05-02T08:00:21Z</time>
      </trkpt>
      <trkpt lat="44.38292" lon="0.75148">
        <ele>179</ele>
        <time>2010-05-02T08:00:30Z</time>
      </trkpt>
      <trkpt lat="44.38305" lon="0.75184">
        <ele>178</ele>
        <time>2010-05-02T08:00:39Z</time>
      </trkpt>
      <trkpt lat="44.38313" lon="0.75227">
        <ele>178</ele>
        <time>2010-05-02T08:00:50Z</time>
      </trkpt>
      <trkpt lat="44.38324" lon="0.75283">
        <ele>174</ele>
        <time>2010-05-02T08:01:04Z</time>
      </trkpt>
      <trkpt lat="44.38329" lon="0.75313">
        <ele>174</ele>
        <time>2010-05-02T08:01:13Z</time>
      </trkpt>
      <trkpt lat="44.38328" lon="0.75355">
        <ele>170</ele>
        <time>2010-05-02T08:01:23Z</time>
      </trkpt>
      <trkpt lat="44.38337" lon="0.75403">
        <ele>172</ele>
        <time>2010-05-02T08:01:33Z</time>
      </trkpt>
      <trkpt lat="44.38341" lon="0.7546">
        <ele>165</ele>
        <time>2010-05-02T08:01:44Z</time>
      </trkpt>
      <trkpt lat="44.3835" lon="0.75478">
        <ele>164</ele>
        <time>2010-05-02T08:01:54Z</time>
      </trkpt>
      <trkpt lat="44.3835" lon="0.7548">
        <ele>163</ele>
        <time>2010-05-02T08:02:31Z</time>
      </trkpt>
      <trkpt lat="44.38349" lon="0.75479">
        <ele>164</ele>
        <time>2010-05-02T08:02:47Z</time>
      </trkpt>
      <trkpt lat="44.38348" lon="0.7548">
        <ele>164</ele>
        <time>2010-05-02T08:03:01Z</time>
      </trkpt>
      <trkpt lat="44.3835" lon="0.75469">
        <ele>164</ele>
        <time>2010-05-02T08:03:14Z</time>
      </trkpt>
      <trkpt lat="44.38351" lon="0.75464">
        <ele>164</ele>
        <time>2010-05-02T08:03:25Z</time>
      </trkpt>
      <trkpt lat="44.38353" lon="0.75457">
        <ele>164</ele>
        <time>2010-05-02T08:03:39Z</time>
      </trkpt>
      <trkpt lat="44.38355" lon="0.75452">
        <ele>165</ele>
        <time>2010-05-02T08:03:50Z</time>
      </trkpt>
      <trkpt lat="44.38359" lon="0.75445">
        <ele>165</ele>
        <time>2010-05-02T08:04:02Z</time>
      </trkpt>
      <trkpt lat="44.38358" lon="0.75439">
        <ele>165</ele>
        <time>2010-05-02T08:04:14Z</time>
      </trkpt>
      <trkpt lat="44.38359" lon="0.75438">
        <ele>165</ele>
        <time>2010-05-02T08:04:34Z</time>
      </trkpt>
      <trkpt lat="44.38358" lon="0.75433">
        <ele>166</ele>
        <time>2010-05-02T08:04:40Z</time>
      </trkpt>
      <trkpt lat="44.38361" lon="0.75404">
        <ele>172</ele>
        <time>2010-05-02T08:04:50Z</time>
      </trkpt>
      <trkpt lat="44.38361" lon="0.75395">
        <ele>172</ele>
        <time>2010-05-02T08:04:58Z</time>
      </trkpt>
      <trkpt lat="44.38361" lon="0.75391">
        <ele>173</ele>
        <time>2010-05-02T08:05:01Z</time>
      </trkpt>
      <trkpt lat="44.38362" lon="0.75383">
        <ele>173</ele>
        <time>2010-05-02T08:05:13Z</time>
      </trkpt>
      <trkpt lat="44.38362" lon="0.75382">
        <ele>173</ele>
        <time>2010-05-02T08:05:14Z</time>
      </trkpt>
      <trkpt lat="44.38361" lon="0.75377">
        <ele>173</ele>
        <time>2010-05-02T08:05:21Z</time>
      </trkpt>
      <trkpt lat="44.3836" lon="0.75369">
        <ele>174</ele>
        <time>2010-05-02T08:05:35Z</time>
      </trkpt>
      <trkpt lat="44.38362" lon="0.75364">
        <ele>174</ele>
        <time>2010-05-02T08:05:47Z</time>
      </trkpt>
      <trkpt lat="44.38365" lon="0.75353">
        <ele>175</ele>
        <time>2010-05-02T08:05:59Z</time>
      </trkpt>
      <trkpt lat="44.38362" lon="0.75343">
        <ele>175</ele>
        <time>2010-05-02T08:06:07Z</time>
      </trkpt>
      <trkpt lat="44.38363" lon="0.75334">
        <ele>175</ele>
        <time>2010-05-02T08:06:19Z</time>
      </trkpt>
      <trkpt lat="44.38362" lon="0.75333">
        <ele>180</ele>
        <time>2010-05-02T08:06:32Z</time>
      </trkpt>
      <trkpt lat="44.38361" lon="0.75321">
        <ele>181</ele>
        <time>2010-05-02T08:06:39Z</time>
      </trkpt>
      <trkpt lat="44.38369" lon="0.75308">
        <ele>181</ele>
        <time>2010-05-02T08:06:47Z</time>
      </trkpt>
      <trkpt lat="44.3837" lon="0.75305">
        <ele>181</ele>
        <time>2010-05-02T08:06:49Z</time>
      </trkpt>
      <trkpt lat="44.38373" lon="0.75297">
        <ele>182</ele>
        <time>2010-05-02T08:06:53Z</time>
      </trkpt>
      <trkpt lat="44.38374" lon="0.75293">
        <ele>182</ele>
        <time>2010-05-02T08:06:56Z</time>
      </trkpt>
      <trkpt lat="44.38379" lon="0.75291">
        <ele>182</ele>
        <time>2010-05-02T08:07:02Z</time>
      </trkpt>
      <trkpt lat="44.38376" lon="0.75274">
        <ele>183</ele>
        <time>2010-05-02T08:07:10Z</time>
      </trkpt>
      <trkpt lat="44.38379" lon="0.75259">
        <ele>183</ele>
        <time>2010-05-02T08:07:17Z</time>
      </trkpt>
      <trkpt lat="44.38382" lon="0.75234">
        <ele>188</ele>
        <time>2010-05-02T08:07:30Z</time>
      </trkpt>
      <trkpt lat="44.38385" lon="0.75214">
        <ele>188</ele>
        <time>2010-05-02T08:07:40Z</time>
      </trkpt>
      <trkpt lat="44.38393" lon="0.75175">
        <ele>189</ele>
        <time>2010-05-02T08:07:51Z</time>
      </trkpt>
      <trkpt lat="44.38399" lon="0.75145">
        <ele>191</ele>
        <time>2010-05-02T08:08:02Z</time>
      </trkpt>
      <trkpt lat="44.38399" lon="0.75107">
        <ele>191</ele>
        <time>2010-05-02T08:08:15Z</time>
      </trkpt>
      <trkpt lat="44.38405" lon="0.75075">
        <ele>192</ele>
        <time>2010-05-02T08:08:24Z</time>
      </trkpt>
      <trkpt lat="44.38409" lon="0.75034">
        <ele>194</ele>
        <time>2010-05-02T08:08:38Z</time>
      </trkpt>
      <trkpt lat="44.3841" lon="0.75029">
        <ele>195</ele>
        <time>2010-05-02T08:08:40Z</time>
      </trkpt>
      <trkpt lat="44.38414" lon="0.75003">
        <ele>197</ele>
        <time>2010-05-02T08:08:52Z</time>
      </trkpt>
      <trkpt lat="44.38415" lon="0.74987">
        <ele>197</ele>
        <time>2010-05-02T08:08:59Z</time>
      </trkpt>
      <trkpt lat="44.38419" lon="0.74967">
        <ele>189</ele>
        <time>2010-05-02T08:09:07Z</time>
      </trkpt>
      <trkpt lat="44.38424" lon="0.74943">
        <ele>190</ele>
        <time>2010-05-02T08:09:17Z</time>
      </trkpt>
      <trkpt lat="44.38425" lon="0.74936">
        <ele>191</ele>
        <time>2010-05-02T08:09:20Z</time>
      </trkpt>
      <trkpt lat="44.38428" lon="0.74911">
        <ele>195</ele>
        <time>2010-05-02T08:09:29Z</time>
      </trkpt>
      <trkpt lat="44.38431" lon="0.74898">
        <ele>193</ele>
        <time>2010-05-02T08:09:35Z</time>
      </trkpt>
      <trkpt lat="44.38436" lon="0.74872">
        <ele>192</ele>
        <time>2010-05-02T08:09:46Z</time>
      </trkpt>
      <trkpt lat="44.38442" lon="0.74842">
        <ele>194</ele>
        <time>2010-05-02T08:09:58Z</time>
      </trkpt>
      <trkpt lat="44.38446" lon="0.74817">
        <ele>197</ele>
        <time>2010-05-02T08:10:09Z</time>
      </trkpt>
      <trkpt lat="44.38449" lon="0.74808">
        <ele>197</ele>
        <time>2010-05-02T08:10:12Z</time>
      </trkpt>
      <trkpt lat="44.38454" lon="0.748">
        <ele>196</ele>
        <time>2010-05-02T08:10:17Z</time>
      </trkpt>
      <trkpt lat="44.38464" lon="0.74783">
        <ele>196</ele>
        <time>2010-05-02T08:10:25Z</time>
      </trkpt>
      <trkpt lat="44.38475" lon="0.74764">
        <ele>195</ele>
        <time>2010-05-02T08:10:32Z</time>
      </trkpt>
      <trkpt lat="44.38493" lon="0.74727">
        <ele>197</ele>
        <time>2010-05-02T08:10:43Z</time>
      </trkpt>
      <trkpt lat="44.38497" lon="0.74716">
        <ele>198</ele>
        <time>2010-05-02T08:10:45Z</time>
      </trkpt>
      <trkpt lat="44.38515" lon="0.74661">
        <ele>192</ele>
        <time>2010-05-02T08:10:54Z</time>
      </trkpt>
      <trkpt lat="44.38518" lon="0.74649">
        <ele>190</ele>
        <time>2010-05-02T08:10:56Z</time>
      </trkpt>
      <trkpt lat="44.38524" lon="0.74633">
        <ele>189</ele>
        <time>2010-05-02T08:10:59Z</time>
      </trkpt>
      <trkpt lat="44.38533" lon="0.74615">
        <ele>188</ele>
        <time>2010-05-02T08:11:02Z</time>
      </trkpt>
      <trkpt lat="44.38555" lon="0.74571">
        <ele>187</ele>
        <time>2010-05-02T08:11:09Z</time>
      </trkpt>
      <trkpt lat="44.38576" lon="0.74529">
        <ele>185</ele>
        <time>2010-05-02T08:11:18Z</time>
      </trkpt>
      <trkpt lat="44.38577" lon="0.74522">
        <ele>185</ele>
        <time>2010-05-02T08:11:20Z</time>
      </trkpt>
      <trkpt lat="44.38595" lon="0.74501">
        <ele>172</ele>
        <time>2010-05-02T08:11:28Z</time>
      </trkpt>
      <trkpt lat="44.38603" lon="0.74497">
        <ele>171</ele>
        <time>2010-05-02T08:11:31Z</time>
      </trkpt>
      <trkpt lat="44.38629" lon="0.74492">
        <ele>164</ele>
        <time>2010-05-02T08:11:41Z</time>
      </trkpt>
      <trkpt lat="44.38646" lon="0.74481">
        <ele>160</ele>
        <time>2010-05-02T08:11:57Z</time>
      </trkpt>
      <trkpt lat="44.38659" lon="0.74477">
        <ele>159</ele>
        <time>2010-05-02T08:12:08Z</time>
      </trkpt>
      <trkpt lat="44.38662" lon="0.74493">
        <ele>153</ele>
        <time>2010-05-02T08:12:15Z</time>
      </trkpt>
      <trkpt lat="44.38661" lon="0.74526">
        <ele>155</ele>
        <time>2010-05-02T08:12:26Z</time>
      </trkpt>
      <trkpt lat="44.38663" lon="0.74568">
        <ele>152</ele>
        <time>2010-05-02T08:12:37Z</time>
      </trkpt>
      <trkpt lat="44.38664" lon="0.74614">
        <ele>153</ele>
        <time>2010-05-02T08:12:51Z</time>
      </trkpt>
      <trkpt lat="44.38663" lon="0.74657">
        <ele>149</ele>
        <time>2010-05-02T08:13:04Z</time>
      </trkpt>
      <trkpt lat="44.38664" lon="0.74674">
        <ele>148</ele>
        <time>2010-05-02T08:13:09Z</time>
      </trkpt>
      <trkpt lat="44.3866" lon="0.74708">
        <ele>151</ele>
        <time>2010-05-02T08:13:19Z</time>
      </trkpt>
      <trkpt lat="44.3865" lon="0.74739">
        <ele>149</ele>
        <time>2010-05-02T08:13:30Z</time>
      </trkpt>
      <trkpt lat="44.3864" lon="0.74757">
        <ele>148</ele>
        <time>2010-05-02T08:13:35Z</time>
      </trkpt>
      <trkpt lat="44.38632" lon="0.74779">
        <ele>149</ele>
        <time>2010-05-02T08:13:39Z</time>
      </trkpt>
      <trkpt lat="44.38627" lon="0.74849">
        <ele>143</ele>
        <time>2010-05-02T08:13:48Z</time>
      </trkpt>
      <trkpt lat="44.38618" lon="0.74912">
        <ele>142</ele>
        <time>2010-05-02T08:13:55Z</time>
      </trkpt>
      <trkpt lat="44.38621" lon="0.74981">
        <ele>137</ele>
        <time>2010-05-02T08:14:04Z</time>
      </trkpt>
      <trkpt lat="44.38619" lon="0.75034">
        <ele>135</ele>
        <time>2010-05-02T08:14:11Z</time>
      </trkpt>
      <trkpt lat="44.38618" lon="0.75093">
        <ele>134</ele>
        <time>2010-05-02T08:14:20Z</time>
      </trkpt>
      <trkpt lat="44.38616" lon="0.7512">
        <ele>134</ele>
        <time>2010-05-02T08:14:24Z</time>
      </trkpt>
      <trkpt lat="44.3862" lon="0.75161">
        <ele>133</ele>
        <time>2010-05-02T08:14:30Z</time>
      </trkpt>
      <trkpt lat="44.3862" lon="0.75223">
        <ele>129</ele>
        <time>2010-05-02T08:14:39Z</time>
      </trkpt>
      <trkpt lat="44.38603" lon="0.75278">
        <ele>124</ele>
        <time>2010-05-02T08:14:46Z</time>
      </trkpt>
      <trkpt lat="44.38594" lon="0.75301">
        <ele>123</ele>
        <time>2010-05-02T08:14:49Z</time>
      </trkpt>
      <trkpt lat="44.38587" lon="0.75321">
        <ele>124</ele>
        <time>2010-05-02T08:14:52Z</time>
      </trkpt>
      <trkpt lat="44.38579" lon="0.75342">
        <ele>128</ele>
        <time>2010-05-02T08:14:56Z</time>
      </trkpt>
      <trkpt lat="44.38571" lon="0.75374">
        <ele>130</ele>
        <time>2010-05-02T08:15:04Z</time>
      </trkpt>
      <trkpt lat="44.38561" lon="0.754">
        <ele>129</ele>
        <time>2010-05-02T08:15:16Z</time>
      </trkpt>
      <trkpt lat="44.3855" lon="0.75431">
        <ele>125</ele>
        <time>2010-05-02T08:15:29Z</time>
      </trkpt>
      <trkpt lat="44.38546" lon="0.75442">
        <ele>125</ele>
        <time>2010-05-02T08:15:40Z</time>
      </trkpt>
      <trkpt lat="44.38538" lon="0.75463">
        <ele>125</ele>
        <time>2010-05-02T08:15:54Z</time>
      </trkpt>
      <trkpt lat="44.38534" lon="0.75473">
        <ele>125</ele>
        <time>2010-05-02T08:15:56Z</time>
      </trkpt>
      <trkpt lat="44.38554" lon="0.75493">
        <ele>121</ele>
        <time>2010-05-02T08:16:03Z</time>
      </trkpt>
      <trkpt lat="44.38571" lon="0.75505">
        <ele>114</ele>
        <time>2010-05-02T08:16:07Z</time>
      </trkpt>
      <trkpt lat="44.38592" lon="0.75534">
        <ele>105</ele>
        <time>2010-05-02T08:16:15Z</time>
      </trkpt>
      <trkpt lat="44.38592" lon="0.7554">
        <ele>105</ele>
        <time>2010-05-02T08:16:17Z</time>
      </trkpt>
      <trkpt lat="44.3859" lon="0.75551">
        <ele>105</ele>
        <time>2010-05-02T08:16:22Z</time>
      </trkpt>
      <trkpt lat="44.38596" lon="0.7559">
        <ele>105</ele>
        <time>2010-05-02T08:16:34Z</time>
      </trkpt>
      <trkpt lat="44.38602" lon="0.75604">
        <ele>102</ele>
        <time>2010-05-02T08:16:37Z</time>
      </trkpt>
      <trkpt lat="44.38611" lon="0.75633">
        <ele>100</ele>
        <time>2010-05-02T08:16:44Z</time>
      </trkpt>
      <trkpt lat="44.38604" lon="0.75704">
        <ele>95</ele>
        <time>2010-05-02T08:16:54Z</time>
      </trkpt>
      <trkpt lat="44.38597" lon="0.75808">
        <ele>92</ele>
        <time>2010-05-02T08:17:05Z</time>
      </trkpt>
      <trkpt lat="44.38597" lon="0.75824">
        <ele>93</ele>
        <time>2010-05-02T08:17:10Z</time>
      </trkpt>
      <trkpt lat="44.38585" lon="0.75842">
        <ele>93</ele>
        <time>2010-05-02T08:17:20Z</time>
      </trkpt>
      <trkpt lat="44.38585" lon="0.75843">
        <ele>93</ele>
        <time>2010-05-02T08:17:21Z</time>
      </trkpt>
      <trkpt lat="44.3859" lon="0.7584">
        <ele>93</ele>
        <time>2010-05-02T08:17:26Z</time>
      </trkpt>
      <trkpt lat="44.38581" lon="0.75848">
        <ele>97</ele>
        <time>2010-05-02T08:17:34Z</time>
      </trkpt>
      <trkpt lat="44.38577" lon="0.75855">
        <ele>97</ele>
        <time>2010-05-02T08:17:36Z</time>
      </trkpt>
      <trkpt lat="44.38559" lon="0.75887">
        <ele>96</ele>
        <time>2010-05-02T08:17:44Z</time>
      </trkpt>
      <trkpt lat="44.38546" lon="0.75913">
        <ele>96</ele>
        <time>2010-05-02T08:17:49Z</time>
      </trkpt>
      <trkpt lat="44.38531" lon="0.75934">
        <ele>91</ele>
        <time>2010-05-02T08:17:54Z</time>
      </trkpt>
      <trkpt lat="44.38523" lon="0.7594">
        <ele>92</ele>
        <time>2010-05-02T08:17:56Z</time>
      </trkpt>
      <trkpt lat="44.38478" lon="0.75961">
        <ele>93</ele>
        <time>2010-05-02T08:18:09Z</time>
      </trkpt>
      <trkpt lat="44.3843" lon="0.75967">
        <ele>93</ele>
        <time>2010-05-02T08:18:23Z</time>
      </trkpt>
      <trkpt lat="44.38387" lon="0.7595">
        <ele>94</ele>
        <time>2010-05-02T08:18:35Z</time>
      </trkpt>
      <trkpt lat="44.38373" lon="0.75938">
        <ele>94</ele>
        <time>2010-05-02T08:18:39Z</time>
      </trkpt>
      <trkpt lat="44.38328" lon="0.75895">
        <ele>99</ele>
        <time>2010-05-02T08:18:53Z</time>
      </trkpt>
      <trkpt lat="44.38279" lon="0.75876">
        <ele>99</ele>
        <time>2010-05-02T08:19:07Z</time>
      </trkpt>
      <trkpt lat="44.38236" lon="0.75862">
        <ele>97</ele>
        <time>2010-05-02T08:19:19Z</time>
      </trkpt>
      <trkpt lat="44.38206" lon="0.75847">
        <ele>96</ele>
        <time>2010-05-02T08:19:27Z</time>
      </trkpt>
      <trkpt lat="44.38195" lon="0.75839">
        <ele>96</ele>
        <time>2010-05-02T08:19:30Z</time>
      </trkpt>
      <trkpt lat="44.38155" lon="0.7579">
        <ele>98</ele>
        <time>2010-05-02T08:19:45Z</time>
      </trkpt>
      <trkpt lat="44.38121" lon="0.7574">
        <ele>102</ele>
        <time>2010-05-02T08:19:59Z</time>
      </trkpt>
      <trkpt lat="44.38091" lon="0.75693">
        <ele>103</ele>
        <time>2010-05-02T08:20:12Z</time>
      </trkpt>
      <trkpt lat="44.38063" lon="0.75628">
        <ele>101</ele>
        <time>2010-05-02T08:20:28Z</time>
      </trkpt>
      <trkpt lat="44.3804" lon="0.75566">
        <ele>105</ele>
        <time>2010-05-02T08:20:42Z</time>
      </trkpt>
      <trkpt lat="44.38017" lon="0.755">
        <ele>104</ele>
        <time>2010-05-02T08:20:56Z</time>
      </trkpt>
      <trkpt lat="44.3801" lon="0.75486">
        <ele>107</ele>
        <time>2010-05-02T08:21:00Z</time>
      </trkpt>
      <trkpt lat="44.37997" lon="0.75486">
        <ele>102</ele>
        <time>2010-05-02T08:21:04Z</time>
      </trkpt>
      <trkpt lat="44.37968" lon="0.75506">
        <ele>98</ele>
        <time>2010-05-02T08:21:09Z</time>
      </trkpt>
      <trkpt lat="44.37958" lon="0.7552">
        <ele>97</ele>
        <time>2010-05-02T08:21:11Z</time>
      </trkpt>
      <trkpt lat="44.37923" lon="0.7553">
        <ele>95</ele>
        <time>2010-05-02T08:21:16Z</time>
      </trkpt>
      <trkpt lat="44.37869" lon="0.75568">
        <ele>95</ele>
        <time>2010-05-02T08:21:25Z</time>
      </trkpt>
      <trkpt lat="44.37879" lon="0.75631">
        <ele>92</ele>
        <time>2010-05-02T08:21:32Z</time>
      </trkpt>
      <trkpt lat="44.37864" lon="0.75654">
        <ele>92</ele>
        <time>2010-05-02T08:21:36Z</time>
      </trkpt>
      <trkpt lat="44.37816" lon="0.75691">
        <ele>96</ele>
        <time>2010-05-02T08:21:50Z</time>
      </trkpt>
      <trkpt lat="44.37788" lon="0.75713">
        <ele>98</ele>
        <time>2010-05-02T08:22:02Z</time>
      </trkpt>
      <trkpt lat="44.3777" lon="0.7573">
        <ele>99</ele>
        <time>2010-05-02T08:22:11Z</time>
      </trkpt>
      <trkpt lat="44.37755" lon="0.75742">
        <ele>100</ele>
        <time>2010-05-02T08:22:20Z</time>
      </trkpt>
      <trkpt lat="44.37733" lon="0.75757">
        <ele>102</ele>
        <time>2010-05-02T08:22:34Z</time>
      </trkpt>
      <trkpt lat="44.37711" lon="0.75773">
        <ele>103</ele>
        <time>2010-05-02T08:22:47Z</time>
      </trkpt>
      <trkpt lat="44.37689" lon="0.75799">
        <ele>104</ele>
        <time>2010-05-02T08:23:00Z</time>
      </trkpt>
      <trkpt lat="44.37663" lon="0.75828">
        <ele>104</ele>
        <time>2010-05-02T08:23:16Z</time>
      </trkpt>
      <trkpt lat="44.37645" lon="0.7585">
        <ele>108</ele>
        <time>2010-05-02T08:23:31Z</time>
      </trkpt>
      <trkpt lat="44.37627" lon="0.75874">
        <ele>110</ele>
        <time>2010-05-02T08:23:50Z</time>
      </trkpt>
      <trkpt lat="44.37613" lon="0.75894">
        <ele>111</ele>
        <time>2010-05-02T08:24:04Z</time>
      </trkpt>
      <trkpt lat="44.37601" lon="0.75913">
        <ele>112</ele>
        <time>2010-05-02T08:24:16Z</time>
      </trkpt>
      <trkpt lat="44.37592" lon="0.7593">
        <ele>116</ele>
        <time>2010-05-02T08:24:28Z</time>
      </trkpt>
      <trkpt lat="44.3758" lon="0.75954">
        <ele>119</ele>
        <time>2010-05-02T08:24:44Z</time>
      </trkpt>
      <trkpt lat="44.37578" lon="0.75957">
        <ele>119</ele>
        <time>2010-05-02T08:24:46Z</time>
      </trkpt>
      <trkpt lat="44.37572" lon="0.75968">
        <ele>120</ele>
        <time>2010-05-02T08:24:54Z</time>
      </trkpt>
      <trkpt lat="44.37568" lon="0.75974">
        <ele>120</ele>
        <time>2010-05-02T08:24:58Z</time>
      </trkpt>
      <trkpt lat="44.37553" lon="0.76001">
        <ele>123</ele>
        <time>2010-05-02T08:25:16Z</time>
      </trkpt>
      <trkpt lat="44.37548" lon="0.76011">
        <ele>124</ele>
        <time>2010-05-02T08:25:22Z</time>
      </trkpt>
      <trkpt lat="44.37532" lon="0.76038">
        <ele>124</ele>
        <time>2010-05-02T08:25:41Z</time>
      </trkpt>
      <trkpt lat="44.3753" lon="0.76042">
        <ele>124</ele>
        <time>2010-05-02T08:25:44Z</time>
      </trkpt>
      <trkpt lat="44.37527" lon="0.76047">
        <ele>124</ele>
        <time>2010-05-02T08:25:47Z</time>
      </trkpt>
      <trkpt lat="44.37533" lon="0.76061">
        <ele>125</ele>
        <time>2010-05-02T08:25:55Z</time>
      </trkpt>
      <trkpt lat="44.37535" lon="0.76064">
        <ele>124</ele>
        <time>2010-05-02T08:26:08Z</time>
      </trkpt>
      <trkpt lat="44.37536" lon="0.76063">
        <ele>124</ele>
        <time>2010-05-02T08:26:20Z</time>
      </trkpt>
      <trkpt lat="44.37536" lon="0.76063">
        <ele>124</ele>
        <time>2010-05-02T08:26:35Z</time>
      </trkpt>
      <trkpt lat="44.37535" lon="0.76064">
        <ele>125</ele>
        <time>2010-05-02T08:27:20Z</time>
      </trkpt>
      <trkpt lat="44.37535" lon="0.76064">
        <ele>125</ele>
        <time>2010-05-02T08:28:01Z</time>
      </trkpt>
      <trkpt lat="44.37537" lon="0.76063">
        <ele>124</ele>
        <time>2010-05-02T08:29:16Z</time>
      </trkpt>
      <trkpt lat="44.37536" lon="0.76065">
        <ele>124</ele>
        <time>2010-05-02T08:30:43Z</time>
      </trkpt>
      <trkpt lat="44.37535" lon="0.76064">
        <ele>125</ele>
        <time>2010-05-02T08:33:28Z</time>
      </trkpt>
      <trkpt lat="44.37535" lon="0.76064">
        <ele>125</ele>
        <time>2010-05-02T08:33:42Z</time>
      </trkpt>
      <trkpt lat="44.37535" lon="0.76068">
        <ele>125</ele>
        <time>2010-05-02T08:33:47Z</time>
      </trkpt>
      <trkpt lat="44.37545" lon="0.76107">
        <ele>124</ele>
        <time>2010-05-02T08:33:56Z</time>
      </trkpt>
      <trkpt lat="44.37541" lon="0.76158">
        <ele>124</ele>
        <time>2010-05-02T08:34:07Z</time>
      </trkpt>
      <trkpt lat="44.37527" lon="0.7617">
        <ele>125</ele>
        <time>2010-05-02T08:34:19Z</time>
      </trkpt>
      <trkpt lat="44.37523" lon="0.76173">
        <ele>125</ele>
        <time>2010-05-02T08:34:23Z</time>
      </trkpt>
      <trkpt lat="44.37521" lon="0.76173">
        <ele>125</ele>
        <time>2010-05-02T08:34:25Z</time>
      </trkpt>
      <trkpt lat="44.37515" lon="0.76176">
        <ele>126</ele>
        <time>2010-05-02T08:34:30Z</time>
      </trkpt>
      <trkpt lat="44.375" lon="0.76182">
        <ele>127</ele>
        <time>2010-05-02T08:34:44Z</time>
      </trkpt>
      <trkpt lat="44.37488" lon="0.76191">
        <ele>131</ele>
        <time>2010-05-02T08:34:56Z</time>
      </trkpt>
      <trkpt lat="44.37484" lon="0.76196">
        <ele>131</ele>
        <time>2010-05-02T08:35:01Z</time>
      </trkpt>
      <trkpt lat="44.37476" lon="0.76202">
        <ele>131</ele>
        <time>2010-05-02T08:35:09Z</time>
      </trkpt>
      <trkpt lat="44.37464" lon="0.76204">
        <ele>131</ele>
        <time>2010-05-02T08:35:17Z</time>
      </trkpt>
      <trkpt lat="44.37459" lon="0.76204">
        <ele>131</ele>
        <time>2010-05-02T08:35:21Z</time>
      </trkpt>
      <trkpt lat="44.37453" lon="0.76205">
        <ele>131</ele>
        <time>2010-05-02T08:35:35Z</time>
      </trkpt>
      <trkpt lat="44.3745" lon="0.76204">
        <ele>131</ele>
        <time>2010-05-02T08:35:46Z</time>
      </trkpt>
      <trkpt lat="44.37449" lon="0.76204">
        <ele>131</ele>
        <time>2010-05-02T08:36:00Z</time>
      </trkpt>
      <trkpt lat="44.37448" lon="0.76204">
        <ele>131</ele>
        <time>2010-05-02T08:36:19Z</time>
      </trkpt>
      <trkpt lat="44.37448" lon="0.76205">
        <ele>131</ele>
        <time>2010-05-02T08:36:26Z</time>
      </trkpt>
      <trkpt lat="44.37445" lon="0.7621">
        <ele>131</ele>
        <time>2010-05-02T08:36:31Z</time>
      </trkpt>
      <trkpt lat="44.37438" lon="0.76216">
        <ele>131</ele>
        <time>2010-05-02T08:36:38Z</time>
      </trkpt>
      <trkpt lat="44.37417" lon="0.76226">
        <ele>131</ele>
        <time>2010-05-02T08:36:51Z</time>
      </trkpt>
      <trkpt lat="44.37382" lon="0.76233">
        <ele>135</ele>
        <time>2010-05-02T08:37:03Z</time>
      </trkpt>
      <trkpt lat="44.37349" lon="0.76249">
        <ele>137</ele>
        <time>2010-05-02T08:37:17Z</time>
      </trkpt>
      <trkpt lat="44.37332" lon="0.76269">
        <ele>141</ele>
        <time>2010-05-02T08:37:27Z</time>
      </trkpt>
      <trkpt lat="44.37305" lon="0.76303">
        <ele>142</ele>
        <time>2010-05-02T08:37:38Z</time>
      </trkpt>
      <trkpt lat="44.37302" lon="0.76307">
        <ele>142</ele>
        <time>2010-05-02T08:37:39Z</time>
      </trkpt>
      <trkpt lat="44.37278" lon="0.76337">
        <ele>142</ele>
        <time>2010-05-02T08:37:49Z</time>
      </trkpt>
      <trkpt lat="44.37267" lon="0.7636">
        <ele>143</ele>
        <time>2010-05-02T08:38:00Z</time>
      </trkpt>
      <trkpt lat="44.37263" lon="0.76372">
        <ele>142</ele>
        <time>2010-05-02T08:38:08Z</time>
      </trkpt>
      <trkpt lat="44.3725" lon="0.76399">
        <ele>144</ele>
        <time>2010-05-02T08:38:22Z</time>
      </trkpt>
      <trkpt lat="44.37245" lon="0.7642">
        <ele>152</ele>
        <time>2010-05-02T08:38:35Z</time>
      </trkpt>
      <trkpt lat="44.37244" lon="0.76436">
        <ele>156</ele>
        <time>2010-05-02T08:38:43Z</time>
      </trkpt>
      <trkpt lat="44.3724" lon="0.76453">
        <ele>157</ele>
        <time>2010-05-02T08:38:54Z</time>
      </trkpt>
      <trkpt lat="44.37238" lon="0.76462">
        <ele>158</ele>
        <time>2010-05-02T08:39:02Z</time>
      </trkpt>
      <trkpt lat="44.37233" lon="0.76476">
        <ele>158</ele>
        <time>2010-05-02T08:39:12Z</time>
      </trkpt>
      <trkpt lat="44.37224" lon="0.76505">
        <ele>157</ele>
        <time>2010-05-02T08:39:25Z</time>
      </trkpt>
      <trkpt lat="44.37222" lon="0.76508">
        <ele>158</ele>
        <time>2010-05-02T08:39:27Z</time>
      </trkpt>
      <trkpt lat="44.37213" lon="0.76531">
        <ele>160</ele>
        <time>2010-05-02T08:39:39Z</time>
      </trkpt>
      <trkpt lat="44.37202" lon="0.76566">
        <ele>161</ele>
        <time>2010-05-02T08:39:52Z</time>
      </trkpt>
      <trkpt lat="44.37201" lon="0.76575">
        <ele>161</ele>
        <time>2010-05-02T08:39:56Z</time>
      </trkpt>
      <trkpt lat="44.37199" lon="0.76585">
        <ele>161</ele>
        <time>2010-05-02T08:40:01Z</time>
      </trkpt>
      <trkpt lat="44.37194" lon="0.76628">
        <ele>162</ele>
        <time>2010-05-02T08:40:16Z</time>
      </trkpt>
      <trkpt lat="44.37192" lon="0.76655">
        <ele>163</ele>
        <time>2010-05-02T08:40:28Z</time>
      </trkpt>
      <trkpt lat="44.3719" lon="0.7668">
        <ele>165</ele>
        <time>2010-05-02T08:40:39Z</time>
      </trkpt>
      <trkpt lat="44.3719" lon="0.76682">
        <ele>165</ele>
        <time>2010-05-02T08:40:40Z</time>
      </trkpt>
      <trkpt lat="44.37188" lon="0.76691">
        <ele>165</ele>
        <time>2010-05-02T08:40:45Z</time>
      </trkpt>
      <trkpt lat="44.37186" lon="0.76711">
        <ele>165</ele>
        <time>2010-05-02T08:40:56Z</time>
      </trkpt>
      <trkpt lat="44.37182" lon="0.76729">
        <ele>167</ele>
        <time>2010-05-02T08:41:07Z</time>
      </trkpt>
      <trkpt lat="44.37181" lon="0.76732">
        <ele>167</ele>
        <time>2010-05-02T08:41:10Z</time>
      </trkpt>
      <trkpt lat="44.37174" lon="0.76757">
        <ele>169</ele>
        <time>2010-05-02T08:41:20Z</time>
      </trkpt>
      <trkpt lat="44.37164" lon="0.7676">
        <ele>171</ele>
        <time>2010-05-02T08:41:28Z</time>
      </trkpt>
      <trkpt lat="44.37161" lon="0.7676">
        <ele>171</ele>
        <time>2010-05-02T08:41:31Z</time>
      </trkpt>
      <trkpt lat="44.37156" lon="0.76765">
        <ele>171</ele>
        <time>2010-05-02T08:41:44Z</time>
      </trkpt>
      <trkpt lat="44.37141" lon="0.76779">
        <ele>170</ele>
        <time>2010-05-02T08:43:42Z</time>
      </trkpt>
      <trkpt lat="44.3711" lon="0.76792">
        <ele>170</ele>
        <time>2010-05-02T08:43:51Z</time>
      </trkpt>
      <trkpt lat="44.37068" lon="0.76789">
        <ele>170</ele>
        <time>2010-05-02T08:43:59Z</time>
      </trkpt>
      <trkpt lat="44.3705" lon="0.76789">
        <ele>169</ele>
        <time>2010-05-02T08:44:03Z</time>
      </trkpt>
      <trkpt lat="44.37011" lon="0.7678">
        <ele>168</ele>
        <time>2010-05-02T08:44:17Z</time>
      </trkpt>
      <trkpt lat="44.37003" lon="0.76768">
        <ele>169</ele>
        <time>2010-05-02T08:44:23Z</time>
      </trkpt>
      <trkpt lat="44.36995" lon="0.76742">
        <ele>169</ele>
        <time>2010-05-02T08:44:35Z</time>
      </trkpt>
      <trkpt lat="44.36992" lon="0.76728">
        <ele>168</ele>
        <time>2010-05-02T08:44:41Z</time>
      </trkpt>
      <trkpt lat="44.3699" lon="0.76721">
        <ele>168</ele>
        <time>2010-05-02T08:44:44Z</time>
      </trkpt>
      <trkpt lat="44.36985" lon="0.767">
        <ele>170</ele>
        <time>2010-05-02T08:44:53Z</time>
      </trkpt>
      <trkpt lat="44.36981" lon="0.76687">
        <ele>171</ele>
        <time>2010-05-02T08:44:58Z</time>
      </trkpt>
      <trkpt lat="44.36966" lon="0.76652">
        <ele>175</ele>
        <time>2010-05-02T08:45:08Z</time>
      </trkpt>
      <trkpt lat="44.36928" lon="0.76567">
        <ele>176</ele>
        <time>2010-05-02T08:45:20Z</time>
      </trkpt>
      <trkpt lat="44.36906" lon="0.76521">
        <ele>171</ele>
        <time>2010-05-02T08:45:25Z</time>
      </trkpt>
      <trkpt lat="44.36889" lon="0.76494">
        <ele>181</ele>
        <time>2010-05-02T08:45:28Z</time>
      </trkpt>
      <trkpt lat="44.36841" lon="0.76478">
        <ele>178</ele>
        <time>2010-05-02T08:45:35Z</time>
      </trkpt>
      <trkpt lat="44.36833" lon="0.76483">
        <ele>177</ele>
        <time>2010-05-02T08:45:36Z</time>
      </trkpt>
      <trkpt lat="44.36747" lon="0.76548">
        <ele>174</ele>
        <time>2010-05-02T08:45:48Z</time>
      </trkpt>
      <trkpt lat="44.367" lon="0.76597">
        <ele>161</ele>
        <time>2010-05-02T08:45:54Z</time>
      </trkpt>
      <trkpt lat="44.36668" lon="0.76618">
        <ele>161</ele>
        <time>2010-05-02T08:45:57Z</time>
      </trkpt>
      <trkpt lat="44.36635" lon="0.76624">
        <ele>163</ele>
        <time>2010-05-02T08:46:01Z</time>
      </trkpt>
      <trkpt lat="44.36613" lon="0.76612">
        <ele>164</ele>
        <time>2010-05-02T08:46:09Z</time>
      </trkpt>
      <trkpt lat="44.36613" lon="0.76615">
        <ele>163</ele>
        <time>2010-05-02T08:46:11Z</time>
      </trkpt>
      <trkpt lat="44.36617" lon="0.76619">
        <ele>163</ele>
        <time>2010-05-02T08:46:16Z</time>
      </trkpt>
      <trkpt lat="44.36619" lon="0.7662">
        <ele>163</ele>
        <time>2010-05-02T08:46:18Z</time>
      </trkpt>
      <trkpt lat="44.36614" lon="0.76612">
        <ele>164</ele>
        <time>2010-05-02T08:46:23Z</time>
      </trkpt>
      <trkpt lat="44.36606" lon="0.76604">
        <ele>165</ele>
        <time>2010-05-02T08:46:29Z</time>
      </trkpt>
      <trkpt lat="44.36583" lon="0.76578">
        <ele>172</ele>
        <time>2010-05-02T08:46:41Z</time>
      </trkpt>
      <trkpt lat="44.36559" lon="0.76536">
        <ele>167</ele>
        <time>2010-05-02T08:46:51Z</time>
      </trkpt>
      <trkpt lat="44.36545" lon="0.76504">
        <ele>167</ele>
        <time>2010-05-02T08:46:56Z</time>
      </trkpt>
      <trkpt lat="44.36535" lon="0.7648">
        <ele>168</ele>
        <time>2010-05-02T08:46:59Z</time>
      </trkpt>
      <trkpt lat="44.36506" lon="0.7642">
        <ele>159</ele>
        <time>2010-05-02T08:47:06Z</time>
      </trkpt>
      <trkpt lat="44.36485" lon="0.76405">
        <ele>151</ele>
        <time>2010-05-02T08:47:09Z</time>
      </trkpt>
      <trkpt lat="44.36461" lon="0.76359">
        <ele>147</ele>
        <time>2010-05-02T08:47:14Z</time>
      </trkpt>
      <trkpt lat="44.36449" lon="0.76291">
        <ele>145</ele>
        <time>2010-05-02T08:47:19Z</time>
      </trkpt>
      <trkpt lat="44.36407" lon="0.76195">
        <ele>140</ele>
        <time>2010-05-02T08:47:27Z</time>
      </trkpt>
      <trkpt lat="44.36369" lon="0.76125">
        <ele>144</ele>
        <time>2010-05-02T08:47:38Z</time>
      </trkpt>
      <trkpt lat="44.36324" lon="0.76042">
        <ele>139</ele>
        <time>2010-05-02T08:47:49Z</time>
      </trkpt>
      <trkpt lat="44.36312" lon="0.76031">
        <ele>139</ele>
        <time>2010-05-02T08:47:57Z</time>
      </trkpt>
      <trkpt lat="44.36311" lon="0.7603">
        <ele>139</ele>
        <time>2010-05-02T08:47:58Z</time>
      </trkpt>
      <trkpt lat="44.36309" lon="0.76028">
        <ele>139</ele>
        <time>2010-05-02T08:48:13Z</time>
      </trkpt>
      <trkpt lat="44.3631" lon="0.76028">
        <ele>139</ele>
        <time>2010-05-02T08:48:26Z</time>
      </trkpt>
      <trkpt lat="44.36303" lon="0.7603">
        <ele>138</ele>
        <time>2010-05-02T08:48:30Z</time>
      </trkpt>
      <trkpt lat="44.36236" lon="0.76068">
        <ele>126</ele>
        <time>2010-05-02T08:48:41Z</time>
      </trkpt>
      <trkpt lat="44.36207" lon="0.76086">
        <ele>124</ele>
        <time>2010-05-02T08:48:46Z</time>
      </trkpt>
      <trkpt lat="44.3619" lon="0.76104">
        <ele>123</ele>
        <time>2010-05-02T08:48:50Z</time>
      </trkpt>
      <trkpt lat="44.36183" lon="0.76115">
        <ele>123</ele>
        <time>2010-05-02T08:48:52Z</time>
      </trkpt>
      <trkpt lat="44.36172" lon="0.76141">
        <ele>122</ele>
        <time>2010-05-02T08:49:00Z</time>
      </trkpt>
      <trkpt lat="44.36148" lon="0.76176">
        <ele>122</ele>
        <time>2010-05-02T08:49:10Z</time>
      </trkpt>
      <trkpt lat="44.36141" lon="0.76178">
        <ele>122</ele>
        <time>2010-05-02T08:49:14Z</time>
      </trkpt>
      <trkpt lat="44.36134" lon="0.76185">
        <ele>123</ele>
        <time>2010-05-02T08:49:19Z</time>
      </trkpt>
      <trkpt lat="44.36129" lon="0.76188">
        <ele>123</ele>
        <time>2010-05-02T08:49:22Z</time>
      </trkpt>
      <trkpt lat="44.36112" lon="0.76196">
        <ele>123</ele>
        <time>2010-05-02T08:49:34Z</time>
      </trkpt>
      <trkpt lat="44.36111" lon="0.76197">
        <ele>123</ele>
        <time>2010-05-02T08:49:35Z</time>
      </trkpt>
      <trkpt lat="44.36087" lon="0.76214">
        <ele>124</ele>
        <time>2010-05-02T08:49:53Z</time>
      </trkpt>
      <trkpt lat="44.36065" lon="0.76226">
        <ele>131</ele>
        <time>2010-05-02T08:50:08Z</time>
      </trkpt>
      <trkpt lat="44.36046" lon="0.76238">
        <ele>132</ele>
        <time>2010-05-02T08:50:23Z</time>
      </trkpt>
      <trkpt lat="44.36034" lon="0.7626">
        <ele>136</ele>
        <time>2010-05-02T08:50:38Z</time>
      </trkpt>
      <trkpt lat="44.36026" lon="0.76286">
        <ele>137</ele>
        <time>2010-05-02T08:50:53Z</time>
      </trkpt>
      <trkpt lat="44.36021" lon="0.76302">
        <ele>139</ele>
        <time>2010-05-02T08:51:04Z</time>
      </trkpt>
      <trkpt lat="44.36019" lon="0.76306">
        <ele>139</ele>
        <time>2010-05-02T08:51:07Z</time>
      </trkpt>
      <trkpt lat="44.36013" lon="0.76305">
        <ele>140</ele>
        <time>2010-05-02T08:51:12Z</time>
      </trkpt>
      <trkpt lat="44.36001" lon="0.76274">
        <ele>139</ele>
        <time>2010-05-02T08:51:27Z</time>
      </trkpt>
      <trkpt lat="44.35987" lon="0.76226">
        <ele>148</ele>
        <time>2010-05-02T08:51:42Z</time>
      </trkpt>
      <trkpt lat="44.35981" lon="0.76159">
        <ele>143</ele>
        <time>2010-05-02T08:51:57Z</time>
      </trkpt>
      <trkpt lat="44.35977" lon="0.76092">
        <ele>142</ele>
        <time>2010-05-02T08:52:12Z</time>
      </trkpt>
      <trkpt lat="44.35971" lon="0.76077">
        <ele>139</ele>
        <time>2010-05-02T08:52:15Z</time>
      </trkpt>
      <trkpt lat="44.35965" lon="0.76068">
        <ele>139</ele>
        <time>2010-05-02T08:52:17Z</time>
      </trkpt>
      <trkpt lat="44.35951" lon="0.76055">
        <ele>140</ele>
        <time>2010-05-02T08:52:21Z</time>
      </trkpt>
      <trkpt lat="44.35914" lon="0.76053">
        <ele>146</ele>
        <time>2010-05-02T08:52:32Z</time>
      </trkpt>
      <trkpt lat="44.35887" lon="0.76071">
        <ele>147</ele>
        <time>2010-05-02T08:52:43Z</time>
      </trkpt>
      <trkpt lat="44.35859" lon="0.76082">
        <ele>149</ele>
        <time>2010-05-02T08:52:57Z</time>
      </trkpt>
      <trkpt lat="44.35838" lon="0.76075">
        <ele>151</ele>
        <time>2010-05-02T08:53:08Z</time>
      </trkpt>
      <trkpt lat="44.3583" lon="0.76059">
        <ele>152</ele>
        <time>2010-05-02T08:53:16Z</time>
      </trkpt>
      <trkpt lat="44.35824" lon="0.76054">
        <ele>151</ele>
        <time>2010-05-02T08:53:20Z</time>
      </trkpt>
      <trkpt lat="44.35818" lon="0.76058">
        <ele>152</ele>
        <time>2010-05-02T08:53:26Z</time>
      </trkpt>
      <trkpt lat="44.35829" lon="0.76073">
        <ele>152</ele>
        <time>2010-05-02T08:53:33Z</time>
      </trkpt>
      <trkpt lat="44.35836" lon="0.76077">
        <ele>151</ele>
        <time>2010-05-02T08:53:35Z</time>
      </trkpt>
      <trkpt lat="44.35853" lon="0.76085">
        <ele>155</ele>
        <time>2010-05-02T08:53:39Z</time>
      </trkpt>
      <trkpt lat="44.35877" lon="0.76081">
        <ele>147</ele>
        <time>2010-05-02T08:53:44Z</time>
      </trkpt>
      <trkpt lat="44.35903" lon="0.76061">
        <ele>146</ele>
        <time>2010-05-02T08:53:49Z</time>
      </trkpt>
      <trkpt lat="44.3594" lon="0.76053">
        <ele>140</ele>
        <time>2010-05-02T08:53:55Z</time>
      </trkpt>
      <trkpt lat="44.35953" lon="0.76061">
        <ele>140</ele>
        <time>2010-05-02T08:54:00Z</time>
      </trkpt>
      <trkpt lat="44.3595" lon="0.76055">
        <ele>140</ele>
        <time>2010-05-02T08:54:05Z</time>
      </trkpt>
      <trkpt lat="44.35922" lon="0.76052">
        <ele>141</ele>
        <time>2010-05-02T08:54:15Z</time>
      </trkpt>
      <trkpt lat="44.35903" lon="0.76061">
        <ele>146</ele>
        <time>2010-05-02T08:54:26Z</time>
      </trkpt>
      <trkpt lat="44.35894" lon="0.76067">
        <ele>147</ele>
        <time>2010-05-02T08:54:32Z</time>
      </trkpt>
      <trkpt lat="44.35887" lon="0.76073">
        <ele>147</ele>
        <time>2010-05-02T08:54:36Z</time>
      </trkpt>
      <trkpt lat="44.35876" lon="0.76081">
        <ele>147</ele>
        <time>2010-05-02T08:54:42Z</time>
      </trkpt>
      <trkpt lat="44.35863" lon="0.76085">
        <ele>155</ele>
        <time>2010-05-02T08:54:49Z</time>
      </trkpt>
      <trkpt lat="44.35855" lon="0.76083">
        <ele>155</ele>
        <time>2010-05-02T08:54:54Z</time>
      </trkpt>
      <trkpt lat="44.35842" lon="0.76077">
        <ele>151</ele>
        <time>2010-05-02T08:55:02Z</time>
      </trkpt>
      <trkpt lat="44.35819" lon="0.76065">
        <ele>152</ele>
        <time>2010-05-02T08:55:16Z</time>
      </trkpt>
      <trkpt lat="44.35796" lon="0.76057">
        <ele>152</ele>
        <time>2010-05-02T08:55:29Z</time>
      </trkpt>
      <trkpt lat="44.3577" lon="0.76069">
        <ele>156</ele>
        <time>2010-05-02T08:55:41Z</time>
      </trkpt>
      <trkpt lat="44.35761" lon="0.76074">
        <ele>158</ele>
        <time>2010-05-02T08:55:47Z</time>
      </trkpt>
      <trkpt lat="44.35749" lon="0.76076">
        <ele>161</ele>
        <time>2010-05-02T08:55:56Z</time>
      </trkpt>
      <trkpt lat="44.35744" lon="0.76077">
        <ele>161</ele>
        <time>2010-05-02T08:55:59Z</time>
      </trkpt>
      <trkpt lat="44.35732" lon="0.76078">
        <ele>159</ele>
        <time>2010-05-02T08:56:06Z</time>
      </trkpt>
      <trkpt lat="44.35724" lon="0.76079">
        <ele>159</ele>
        <time>2010-05-02T08:56:11Z</time>
      </trkpt>
      <trkpt lat="44.35697" lon="0.76088">
        <ele>170</ele>
        <time>2010-05-02T08:56:24Z</time>
      </trkpt>
      <trkpt lat="44.35681" lon="0.76093">
        <ele>169</ele>
        <time>2010-05-02T08:56:34Z</time>
      </trkpt>
      <trkpt lat="44.35669" lon="0.76098">
        <ele>169</ele>
        <time>2010-05-02T08:56:43Z</time>
      </trkpt>
      <trkpt lat="44.35664" lon="0.76099">
        <ele>170</ele>
        <time>2010-05-02T08:56:47Z</time>
      </trkpt>
      <trkpt lat="44.35652" lon="0.76103">
        <ele>171</ele>
        <time>2010-05-02T08:56:57Z</time>
      </trkpt>
      <trkpt lat="44.35634" lon="0.76109">
        <ele>173</ele>
        <time>2010-05-02T08:57:06Z</time>
      </trkpt>
      <trkpt lat="44.35622" lon="0.76114">
        <ele>174</ele>
        <time>2010-05-02T08:57:15Z</time>
      </trkpt>
      <trkpt lat="44.35617" lon="0.76117">
        <ele>174</ele>
        <time>2010-05-02T08:57:19Z</time>
      </trkpt>
      <trkpt lat="44.35604" lon="0.7612">
        <ele>175</ele>
        <time>2010-05-02T08:57:25Z</time>
      </trkpt>
      <trkpt lat="44.35599" lon="0.76121">
        <ele>175</ele>
        <time>2010-05-02T08:57:28Z</time>
      </trkpt>
      <trkpt lat="44.35588" lon="0.76122">
        <ele>175</ele>
        <time>2010-05-02T08:57:34Z</time>
      </trkpt>
      <trkpt lat="44.35579" lon="0.76121">
        <ele>179</ele>
        <time>2010-05-02T08:57:41Z</time>
      </trkpt>
      <trkpt lat="44.35572" lon="0.7612">
        <ele>179</ele>
        <time>2010-05-02T08:57:45Z</time>
      </trkpt>
      <trkpt lat="44.35565" lon="0.76121">
        <ele>179</ele>
        <time>2010-05-02T08:57:49Z</time>
      </trkpt>
      <trkpt lat="44.35555" lon="0.76123">
        <ele>180</ele>
        <time>2010-05-02T08:57:55Z</time>
      </trkpt>
      <trkpt lat="44.3554" lon="0.76125">
        <ele>181</ele>
        <time>2010-05-02T08:58:06Z</time>
      </trkpt>
      <trkpt lat="44.35536" lon="0.76127">
        <ele>181</ele>
        <time>2010-05-02T08:58:09Z</time>
      </trkpt>
      <trkpt lat="44.3553" lon="0.76129">
        <ele>182</ele>
        <time>2010-05-02T08:58:14Z</time>
      </trkpt>
      <trkpt lat="44.3552" lon="0.76128">
        <ele>182</ele>
        <time>2010-05-02T08:58:21Z</time>
      </trkpt>
      <trkpt lat="44.35509" lon="0.76131">
        <ele>183</ele>
        <time>2010-05-02T08:58:28Z</time>
      </trkpt>
      <trkpt lat="44.35504" lon="0.76132">
        <ele>183</ele>
        <time>2010-05-02T08:58:31Z</time>
      </trkpt>
      <trkpt lat="44.35491" lon="0.7614">
        <ele>189</ele>
        <time>2010-05-02T08:58:41Z</time>
      </trkpt>
      <trkpt lat="44.35486" lon="0.76147">
        <ele>190</ele>
        <time>2010-05-02T08:58:49Z</time>
      </trkpt>
      <trkpt lat="44.35477" lon="0.76156">
        <ele>190</ele>
        <time>2010-05-02T08:59:00Z</time>
      </trkpt>
      <trkpt lat="44.35476" lon="0.76158">
        <ele>190</ele>
        <time>2010-05-02T08:59:01Z</time>
      </trkpt>
      <trkpt lat="44.35462" lon="0.76176">
        <ele>191</ele>
        <time>2010-05-02T08:59:13Z</time>
      </trkpt>
      <trkpt lat="44.35458" lon="0.76185">
        <ele>192</ele>
        <time>2010-05-02T08:59:19Z</time>
      </trkpt>
      <trkpt lat="44.35456" lon="0.76197">
        <ele>192</ele>
        <time>2010-05-02T08:59:24Z</time>
      </trkpt>
      <trkpt lat="44.35452" lon="0.76204">
        <ele>192</ele>
        <time>2010-05-02T08:59:28Z</time>
      </trkpt>
      <trkpt lat="44.35447" lon="0.76206">
        <ele>192</ele>
        <time>2010-05-02T08:59:33Z</time>
      </trkpt>
      <trkpt lat="44.35443" lon="0.76209">
        <ele>192</ele>
        <time>2010-05-02T08:59:44Z</time>
      </trkpt>
      <trkpt lat="44.3544" lon="0.76209">
        <ele>192</ele>
        <time>2010-05-02T09:03:21Z</time>
      </trkpt>
      <trkpt lat="44.35439" lon="0.7621">
        <ele>192</ele>
        <time>2010-05-02T09:03:33Z</time>
      </trkpt>
      <trkpt lat="44.35439" lon="0.76213">
        <ele>192</ele>
        <time>2010-05-02T09:04:06Z</time>
      </trkpt>
      <trkpt lat="44.35432" lon="0.76217">
        <ele>192</ele>
        <time>2010-05-02T09:04:13Z</time>
      </trkpt>
      <trkpt lat="44.35416" lon="0.76233">
        <ele>194</ele>
        <time>2010-05-02T09:04:27Z</time>
      </trkpt>
      <trkpt lat="44.35412" lon="0.76237">
        <ele>193</ele>
        <time>2010-05-02T09:04:30Z</time>
      </trkpt>
      <trkpt lat="44.35408" lon="0.76243">
        <ele>193</ele>
        <time>2010-05-02T09:04:34Z</time>
      </trkpt>
      <trkpt lat="44.35396" lon="0.76258">
        <ele>194</ele>
        <time>2010-05-02T09:04:47Z</time>
      </trkpt>
      <trkpt lat="44.35394" lon="0.76262">
        <ele>194</ele>
        <time>2010-05-02T09:04:50Z</time>
      </trkpt>
      <trkpt lat="44.35389" lon="0.76268">
        <ele>194</ele>
        <time>2010-05-02T09:04:55Z</time>
      </trkpt>
      <trkpt lat="44.35376" lon="0.76287">
        <ele>195</ele>
        <time>2010-05-02T09:05:08Z</time>
      </trkpt>
      <trkpt lat="44.3537" lon="0.76295">
        <ele>195</ele>
        <time>2010-05-02T09:05:14Z</time>
      </trkpt>
      <trkpt lat="44.35355" lon="0.76311">
        <ele>196</ele>
        <time>2010-05-02T09:05:27Z</time>
      </trkpt>
      <trkpt lat="44.35353" lon="0.76315">
        <ele>197</ele>
        <time>2010-05-02T09:05:39Z</time>
      </trkpt>
      <trkpt lat="44.3535" lon="0.76318">
        <ele>197</ele>
        <time>2010-05-02T09:05:41Z</time>
      </trkpt>
      <trkpt lat="44.35334" lon="0.76333">
        <ele>200</ele>
        <time>2010-05-02T09:05:54Z</time>
      </trkpt>
      <trkpt lat="44.35313" lon="0.76353">
        <ele>200</ele>
        <time>2010-05-02T09:06:08Z</time>
      </trkpt>
      <trkpt lat="44.35286" lon="0.76378">
        <ele>200</ele>
        <time>2010-05-02T09:06:23Z</time>
      </trkpt>
      <trkpt lat="44.35268" lon="0.76395">
        <ele>200</ele>
        <time>2010-05-02T09:06:36Z</time>
      </trkpt>
      <trkpt lat="44.35255" lon="0.76404">
        <ele>200</ele>
        <time>2010-05-02T09:06:44Z</time>
      </trkpt>
      <trkpt lat="44.3525" lon="0.76403">
        <ele>201</ele>
        <time>2010-05-02T09:06:59Z</time>
      </trkpt>
      <trkpt lat="44.3525" lon="0.76404">
        <ele>201</ele>
        <time>2010-05-02T09:07:15Z</time>
      </trkpt>
      <trkpt lat="44.35251" lon="0.76398">
        <ele>200</ele>
        <time>2010-05-02T09:07:26Z</time>
      </trkpt>
      <trkpt lat="44.3525" lon="0.76399">
        <ele>201</ele>
        <time>2010-05-02T09:07:46Z</time>
      </trkpt>
      <trkpt lat="44.35245" lon="0.76402">
        <ele>201</ele>
        <time>2010-05-02T09:08:04Z</time>
      </trkpt>
      <trkpt lat="44.35247" lon="0.764">
        <ele>201</ele>
        <time>2010-05-02T09:08:18Z</time>
      </trkpt>
      <trkpt lat="44.35246" lon="0.76398">
        <ele>201</ele>
        <time>2010-05-02T09:08:20Z</time>
      </trkpt>
      <trkpt lat="44.35247" lon="0.76385">
        <ele>201</ele>
        <time>2010-05-02T09:08:25Z</time>
      </trkpt>
      <trkpt lat="44.35253" lon="0.76323">
        <ele>200</ele>
        <time>2010-05-02T09:08:40Z</time>
      </trkpt>
      <trkpt lat="44.35255" lon="0.76243">
        <ele>200</ele>
        <time>2010-05-02T09:08:55Z</time>
      </trkpt>
      <trkpt lat="44.35255" lon="0.76231">
        <ele>199</ele>
        <time>2010-05-02T09:08:57Z</time>
      </trkpt>
      <trkpt lat="44.35245" lon="0.76185">
        <ele>201</ele>
        <time>2010-05-02T09:09:04Z</time>
      </trkpt>
      <trkpt lat="44.35241" lon="0.76172">
        <ele>201</ele>
        <time>2010-05-02T09:09:06Z</time>
      </trkpt>
      <trkpt lat="44.35223" lon="0.76132">
        <ele>201</ele>
        <time>2010-05-02T09:09:13Z</time>
      </trkpt>
      <trkpt lat="44.35202" lon="0.76069">
        <ele>201</ele>
        <time>2010-05-02T09:09:25Z</time>
      </trkpt>
      <trkpt lat="44.35171" lon="0.75995">
        <ele>201</ele>
        <time>2010-05-02T09:09:41Z</time>
      </trkpt>
      <trkpt lat="44.35166" lon="0.75974">
        <ele>203</ele>
        <time>2010-05-02T09:09:45Z</time>
      </trkpt>
      <trkpt lat="44.35126" lon="0.75898">
        <ele>205</ele>
        <time>2010-05-02T09:10:02Z</time>
      </trkpt>
      <trkpt lat="44.35108" lon="0.75878">
        <ele>205</ele>
        <time>2010-05-02T09:10:08Z</time>
      </trkpt>
      <trkpt lat="44.35103" lon="0.75869">
        <ele>205</ele>
        <time>2010-05-02T09:10:10Z</time>
      </trkpt>
      <trkpt lat="44.35075" lon="0.75796">
        <ele>205</ele>
        <time>2010-05-02T09:10:23Z</time>
      </trkpt>
      <trkpt lat="44.35049" lon="0.75709">
        <ele>203</ele>
        <time>2010-05-02T09:10:36Z</time>
      </trkpt>
      <trkpt lat="44.35032" lon="0.75607">
        <ele>202</ele>
        <time>2010-05-02T09:10:52Z</time>
      </trkpt>
      <trkpt lat="44.35026" lon="0.75564">
        <ele>203</ele>
        <time>2010-05-02T09:10:59Z</time>
      </trkpt>
      <trkpt lat="44.35022" lon="0.75508">
        <ele>204</ele>
        <time>2010-05-02T09:11:11Z</time>
      </trkpt>
      <trkpt lat="44.35016" lon="0.75429">
        <ele>204</ele>
        <time>2010-05-02T09:11:27Z</time>
      </trkpt>
      <trkpt lat="44.3501" lon="0.75354">
        <ele>206</ele>
        <time>2010-05-02T09:11:42Z</time>
      </trkpt>
      <trkpt lat="44.35004" lon="0.75271">
        <ele>207</ele>
        <time>2010-05-02T09:11:58Z</time>
      </trkpt>
      <trkpt lat="44.35002" lon="0.75242">
        <ele>207</ele>
        <time>2010-05-02T09:12:05Z</time>
      </trkpt>
      <trkpt lat="44.35004" lon="0.75235">
        <ele>207</ele>
        <time>2010-05-02T09:12:11Z</time>
      </trkpt>
      <trkpt lat="44.34999" lon="0.75226">
        <ele>206</ele>
        <time>2010-05-02T09:12:20Z</time>
      </trkpt>
      <trkpt lat="44.35002" lon="0.75228">
        <ele>207</ele>
        <time>2010-05-02T09:12:28Z</time>
      </trkpt>
      <trkpt lat="44.34999" lon="0.75214">
        <ele>206</ele>
        <time>2010-05-02T09:12:31Z</time>
      </trkpt>
      <trkpt lat="44.34989" lon="0.75176">
        <ele>206</ele>
        <time>2010-05-02T09:12:38Z</time>
      </trkpt>
      <trkpt lat="44.34984" lon="0.75152">
        <ele>206</ele>
        <time>2010-05-02T09:12:42Z</time>
      </trkpt>
      <trkpt lat="44.34966" lon="0.75059">
        <ele>205</ele>
        <time>2010-05-02T09:12:59Z</time>
      </trkpt>
      <trkpt lat="44.34952" lon="0.74986">
        <ele>204</ele>
        <time>2010-05-02T09:13:10Z</time>
      </trkpt>
      <trkpt lat="44.34939" lon="0.7488">
        <ele>206</ele>
        <time>2010-05-02T09:13:26Z</time>
      </trkpt>
      <trkpt lat="44.3493" lon="0.74831">
        <ele>206</ele>
        <time>2010-05-02T09:13:34Z</time>
      </trkpt>
      <trkpt lat="44.3491" lon="0.7474">
        <ele>207</ele>
        <time>2010-05-02T09:13:50Z</time>
      </trkpt>
      <trkpt lat="44.34891" lon="0.74659">
        <ele>208</ele>
        <time>2010-05-02T09:14:06Z</time>
      </trkpt>
      <trkpt lat="44.34888" lon="0.74647">
        <ele>208</ele>
        <time>2010-05-02T09:14:09Z</time>
      </trkpt>
      <trkpt lat="44.34893" lon="0.74641">
        <ele>208</ele>
        <time>2010-05-02T09:14:13Z</time>
      </trkpt>
      <trkpt lat="44.349" lon="0.7464">
        <ele>208</ele>
        <time>2010-05-02T09:14:15Z</time>
      </trkpt>
      <trkpt lat="44.3496" lon="0.74617">
        <ele>207</ele>
        <time>2010-05-02T09:14:28Z</time>
      </trkpt>
      <trkpt lat="44.35019" lon="0.74591">
        <ele>206</ele>
        <time>2010-05-02T09:14:39Z</time>
      </trkpt>
      <trkpt lat="44.35025" lon="0.74589">
        <ele>205</ele>
        <time>2010-05-02T09:14:40Z</time>
      </trkpt>
      <trkpt lat="44.35069" lon="0.74575">
        <ele>205</ele>
        <time>2010-05-02T09:14:48Z</time>
      </trkpt>
      <trkpt lat="44.35095" lon="0.74571">
        <ele>204</ele>
        <time>2010-05-02T09:14:55Z</time>
      </trkpt>
      <trkpt lat="44.35128" lon="0.74562">
        <ele>204</ele>
        <time>2010-05-02T09:15:02Z</time>
      </trkpt>
      <trkpt lat="44.35143" lon="0.74558">
        <ele>204</ele>
        <time>2010-05-02T09:15:05Z</time>
      </trkpt>
      <trkpt lat="44.35164" lon="0.7455">
        <ele>204</ele>
        <time>2010-05-02T09:15:09Z</time>
      </trkpt>
      <trkpt lat="44.35252" lon="0.74527">
        <ele>203</ele>
        <time>2010-05-02T09:15:26Z</time>
      </trkpt>
      <trkpt lat="44.35309" lon="0.74515">
        <ele>204</ele>
        <time>2010-05-02T09:15:41Z</time>
      </trkpt>
      <trkpt lat="44.35352" lon="0.74511">
        <ele>206</ele>
        <time>2010-05-02T09:15:55Z</time>
      </trkpt>
      <trkpt lat="44.35392" lon="0.74509">
        <ele>207</ele>
        <time>2010-05-02T09:16:09Z</time>
      </trkpt>
      <trkpt lat="44.35427" lon="0.74507">
        <ele>206</ele>
        <time>2010-05-02T09:16:20Z</time>
      </trkpt>
      <trkpt lat="44.35466" lon="0.74501">
        <ele>206</ele>
        <time>2010-05-02T09:16:32Z</time>
      </trkpt>
      <trkpt lat="44.35516" lon="0.74478">
        <ele>203</ele>
        <time>2010-05-02T09:16:45Z</time>
      </trkpt>
      <trkpt lat="44.3552" lon="0.74476">
        <ele>203</ele>
        <time>2010-05-02T09:16:46Z</time>
      </trkpt>
      <trkpt lat="44.35546" lon="0.74466">
        <ele>203</ele>
        <time>2010-05-02T09:16:53Z</time>
      </trkpt>
      <trkpt lat="44.35554" lon="0.74461">
        <ele>203</ele>
        <time>2010-05-02T09:16:58Z</time>
      </trkpt>
      <trkpt lat="44.35548" lon="0.74463">
        <ele>203</ele>
        <time>2010-05-02T09:17:06Z</time>
      </trkpt>
      <trkpt lat="44.35541" lon="0.74467">
        <ele>203</ele>
        <time>2010-05-02T09:17:10Z</time>
      </trkpt>
      <trkpt lat="44.35533" lon="0.7447">
        <ele>203</ele>
        <time>2010-05-02T09:17:15Z</time>
      </trkpt>
      <trkpt lat="44.35532" lon="0.74473">
        <ele>203</ele>
        <time>2010-05-02T09:17:21Z</time>
      </trkpt>
      <trkpt lat="44.35566" lon="0.74457">
        <ele>203</ele>
        <time>2010-05-02T09:17:33Z</time>
      </trkpt>
      <trkpt lat="44.35614" lon="0.74472">
        <ele>203</ele>
        <time>2010-05-02T09:17:47Z</time>
      </trkpt>
      <trkpt lat="44.35666" lon="0.74493">
        <ele>204</ele>
        <time>2010-05-02T09:18:03Z</time>
      </trkpt>
      <trkpt lat="44.35702" lon="0.74501">
        <ele>205</ele>
        <time>2010-05-02T09:18:15Z</time>
      </trkpt>
      <trkpt lat="44.35747" lon="0.74497">
        <ele>205</ele>
        <time>2010-05-02T09:18:28Z</time>
      </trkpt>
      <trkpt lat="44.35793" lon="0.74479">
        <ele>205</ele>
        <time>2010-05-02T09:18:41Z</time>
      </trkpt>
      <trkpt lat="44.35837" lon="0.74467">
        <ele>207</ele>
        <time>2010-05-02T09:18:54Z</time>
      </trkpt>
      <trkpt lat="44.35886" lon="0.74463">
        <ele>207</ele>
        <time>2010-05-02T09:19:08Z</time>
      </trkpt>
      <trkpt lat="44.3593" lon="0.74463">
        <ele>207</ele>
        <time>2010-05-02T09:19:21Z</time>
      </trkpt>
      <trkpt lat="44.35943" lon="0.7446">
        <ele>207</ele>
        <time>2010-05-02T09:19:25Z</time>
      </trkpt>
      <trkpt lat="44.35945" lon="0.74439">
        <ele>208</ele>
        <time>2010-05-02T09:19:31Z</time>
      </trkpt>
      <trkpt lat="44.35923" lon="0.74368">
        <ele>208</ele>
        <time>2010-05-02T09:19:44Z</time>
      </trkpt>
      <trkpt lat="44.35889" lon="0.74266">
        <ele>203</ele>
        <time>2010-05-02T09:19:58Z</time>
      </trkpt>
      <trkpt lat="44.35893" lon="0.7421">
        <ele>201</ele>
        <time>2010-05-02T09:20:04Z</time>
      </trkpt>
      <trkpt lat="44.35917" lon="0.74165">
        <ele>203</ele>
        <time>2010-05-02T09:20:11Z</time>
      </trkpt>
      <trkpt lat="44.35923" lon="0.7415">
        <ele>203</ele>
        <time>2010-05-02T09:20:14Z</time>
      </trkpt>
      <trkpt lat="44.35928" lon="0.74133">
        <ele>203</ele>
        <time>2010-05-02T09:20:17Z</time>
      </trkpt>
      <trkpt lat="44.35943" lon="0.7407">
        <ele>199</ele>
        <time>2010-05-02T09:20:27Z</time>
      </trkpt>
      <trkpt lat="44.35958" lon="0.73968">
        <ele>195</ele>
        <time>2010-05-02T09:20:42Z</time>
      </trkpt>
      <trkpt lat="44.35977" lon="0.73899">
        <ele>192</ele>
        <time>2010-05-02T09:20:50Z</time>
      </trkpt>
      <trkpt lat="44.36005" lon="0.73871">
        <ele>198</ele>
        <time>2010-05-02T09:20:56Z</time>
      </trkpt>
      <trkpt lat="44.36015" lon="0.73863">
        <ele>198</ele>
        <time>2010-05-02T09:20:58Z</time>
      </trkpt>
      <trkpt lat="44.36036" lon="0.73844">
        <ele>198</ele>
        <time>2010-05-02T09:21:03Z</time>
      </trkpt>
      <trkpt lat="44.36051" lon="0.73828">
        <ele>197</ele>
        <time>2010-05-02T09:21:08Z</time>
      </trkpt>
      <trkpt lat="44.36058" lon="0.73816">
        <ele>197</ele>
        <time>2010-05-02T09:21:11Z</time>
      </trkpt>
      <trkpt lat="44.36054" lon="0.73798">
        <ele>196</ele>
        <time>2010-05-02T09:21:15Z</time>
      </trkpt>
      <trkpt lat="44.36041" lon="0.73788">
        <ele>196</ele>
        <time>2010-05-02T09:21:18Z</time>
      </trkpt>
      <trkpt lat="44.36033" lon="0.73784">
        <ele>195</ele>
        <time>2010-05-02T09:21:20Z</time>
      </trkpt>
      <trkpt lat="44.36027" lon="0.7376">
        <ele>194</ele>
        <time>2010-05-02T09:21:26Z</time>
      </trkpt>
      <trkpt lat="44.36031" lon="0.73752">
        <ele>194</ele>
        <time>2010-05-02T09:21:28Z</time>
      </trkpt>
      <trkpt lat="44.36042" lon="0.7373">
        <ele>188</ele>
        <time>2010-05-02T09:21:34Z</time>
      </trkpt>
      <trkpt lat="44.36075" lon="0.73672">
        <ele>186</ele>
        <time>2010-05-02T09:21:42Z</time>
      </trkpt>
      <trkpt lat="44.36098" lon="0.73631">
        <ele>182</ele>
        <time>2010-05-02T09:21:47Z</time>
      </trkpt>
      <trkpt lat="44.36108" lon="0.73618">
        <ele>181</ele>
        <time>2010-05-02T09:21:49Z</time>
      </trkpt>
      <trkpt lat="44.36133" lon="0.73596">
        <ele>181</ele>
        <time>2010-05-02T09:21:53Z</time>
      </trkpt>
      <trkpt lat="44.3615" lon="0.73585">
        <ele>183</ele>
        <time>2010-05-02T09:21:56Z</time>
      </trkpt>
      <trkpt lat="44.36176" lon="0.73594">
        <ele>185</ele>
        <time>2010-05-02T09:22:04Z</time>
      </trkpt>
      <trkpt lat="44.36188" lon="0.73599">
        <ele>185</ele>
        <time>2010-05-02T09:22:10Z</time>
      </trkpt>
      <trkpt lat="44.36197" lon="0.73588">
        <ele>185</ele>
        <time>2010-05-02T09:22:16Z</time>
      </trkpt>
      <trkpt lat="44.36211" lon="0.73546">
        <ele>183</ele>
        <time>2010-05-02T09:22:27Z</time>
      </trkpt>
      <trkpt lat="44.36209" lon="0.73514">
        <ele>182</ele>
        <time>2010-05-02T09:22:32Z</time>
      </trkpt>
      <trkpt lat="44.36202" lon="0.73468">
        <ele>177</ele>
        <time>2010-05-02T09:22:38Z</time>
      </trkpt>
      <trkpt lat="44.36206" lon="0.73445">
        <ele>176</ele>
        <time>2010-05-02T09:22:42Z</time>
      </trkpt>
      <trkpt lat="44.36229" lon="0.73422">
        <ele>178</ele>
        <time>2010-05-02T09:22:47Z</time>
      </trkpt>
      <trkpt lat="44.36238" lon="0.73407">
        <ele>173</ele>
        <time>2010-05-02T09:22:50Z</time>
      </trkpt>
      <trkpt lat="44.36248" lon="0.73377">
        <ele>169</ele>
        <time>2010-05-02T09:22:55Z</time>
      </trkpt>
      <trkpt lat="44.36252" lon="0.73361">
        <ele>172</ele>
        <time>2010-05-02T09:22:57Z</time>
      </trkpt>
      <trkpt lat="44.36263" lon="0.73264">
        <ele>167</ele>
        <time>2010-05-02T09:23:08Z</time>
      </trkpt>
      <trkpt lat="44.36265" lon="0.73244">
        <ele>163</ele>
        <time>2010-05-02T09:23:10Z</time>
      </trkpt>
      <trkpt lat="44.36285" lon="0.73174">
        <ele>162</ele>
        <time>2010-05-02T09:23:19Z</time>
      </trkpt>
      <trkpt lat="44.36292" lon="0.7315">
        <ele>154</ele>
        <time>2010-05-02T09:23:24Z</time>
      </trkpt>
      <trkpt lat="44.36321" lon="0.73087">
        <ele>151</ele>
        <time>2010-05-02T09:23:33Z</time>
      </trkpt>
      <trkpt lat="44.36345" lon="0.73064">
        <ele>146</ele>
        <time>2010-05-02T09:23:37Z</time>
      </trkpt>
      <trkpt lat="44.36357" lon="0.73051">
        <ele>144</ele>
        <time>2010-05-02T09:23:39Z</time>
      </trkpt>
      <trkpt lat="44.36377" lon="0.7301">
        <ele>141</ele>
        <time>2010-05-02T09:23:43Z</time>
      </trkpt>
      <trkpt lat="44.36386" lon="0.72979">
        <ele>133</ele>
        <time>2010-05-02T09:23:46Z</time>
      </trkpt>
      <trkpt lat="44.36404" lon="0.72945">
        <ele>130</ele>
        <time>2010-05-02T09:23:50Z</time>
      </trkpt>
      <trkpt lat="44.36448" lon="0.72907">
        <ele>124</ele>
        <time>2010-05-02T09:23:56Z</time>
      </trkpt>
      <trkpt lat="44.365" lon="0.72866">
        <ele>122</ele>
        <time>2010-05-02T09:24:03Z</time>
      </trkpt>
      <trkpt lat="44.36527" lon="0.72782">
        <ele>113</ele>
        <time>2010-05-02T09:24:11Z</time>
      </trkpt>
      <trkpt lat="44.36553" lon="0.72688">
        <ele>106</ele>
        <time>2010-05-02T09:24:17Z</time>
      </trkpt>
      <trkpt lat="44.36577" lon="0.72637">
        <ele>104</ele>
        <time>2010-05-02T09:24:21Z</time>
      </trkpt>
      <trkpt lat="44.36587" lon="0.72588">
        <ele>106</ele>
        <time>2010-05-02T09:24:25Z</time>
      </trkpt>
      <trkpt lat="44.36594" lon="0.72466">
        <ele>105</ele>
        <time>2010-05-02T09:24:37Z</time>
      </trkpt>
      <trkpt lat="44.36606" lon="0.72425">
        <ele>105</ele>
        <time>2010-05-02T09:24:46Z</time>
      </trkpt>
      <trkpt lat="44.36608" lon="0.72411">
        <ele>102</ele>
        <time>2010-05-02T09:24:50Z</time>
      </trkpt>
      <trkpt lat="44.3661" lon="0.72404">
        <ele>102</ele>
        <time>2010-05-02T09:24:59Z</time>
      </trkpt>
      <trkpt lat="44.3661" lon="0.72403">
        <ele>102</ele>
        <time>2010-05-02T09:25:20Z</time>
      </trkpt>
      <trkpt lat="44.36611" lon="0.72404">
        <ele>102</ele>
        <time>2010-05-02T09:25:23Z</time>
      </trkpt>
      <trkpt lat="44.3662" lon="0.72395">
        <ele>102</ele>
        <time>2010-05-02T09:25:30Z</time>
      </trkpt>
      <trkpt lat="44.36634" lon="0.72375">
        <ele>102</ele>
        <time>2010-05-02T09:25:37Z</time>
      </trkpt>
      <trkpt lat="44.36658" lon="0.72338">
        <ele>101</ele>
        <time>2010-05-02T09:25:48Z</time>
      </trkpt>
      <trkpt lat="44.36676" lon="0.72316">
        <ele>101</ele>
        <time>2010-05-02T09:25:58Z</time>
      </trkpt>
      <trkpt lat="44.36694" lon="0.72288">
        <ele>101</ele>
        <time>2010-05-02T09:26:09Z</time>
      </trkpt>
      <trkpt lat="44.36714" lon="0.72241">
        <ele>96</ele>
        <time>2010-05-02T09:26:23Z</time>
      </trkpt>
      <trkpt lat="44.36735" lon="0.72209">
        <ele>96</ele>
        <time>2010-05-02T09:26:35Z</time>
      </trkpt>
      <trkpt lat="44.3676" lon="0.72195">
        <ele>98</ele>
        <time>2010-05-02T09:26:45Z</time>
      </trkpt>
      <trkpt lat="44.36773" lon="0.72191">
        <ele>98</ele>
        <time>2010-05-02T09:26:50Z</time>
      </trkpt>
      <trkpt lat="44.36802" lon="0.72181">
        <ele>98</ele>
        <time>2010-05-02T09:27:01Z</time>
      </trkpt>
      <trkpt lat="44.36823" lon="0.72169">
        <ele>96</ele>
        <time>2010-05-02T09:27:13Z</time>
      </trkpt>
      <trkpt lat="44.36831" lon="0.72165">
        <ele>94</ele>
        <time>2010-05-02T09:27:18Z</time>
      </trkpt>
      <trkpt lat="44.36836" lon="0.72159">
        <ele>93</ele>
        <time>2010-05-02T09:27:28Z</time>
      </trkpt>
      <trkpt lat="44.3684" lon="0.72159">
        <ele>93</ele>
        <time>2010-05-02T09:27:40Z</time>
      </trkpt>
      <trkpt lat="44.36853" lon="0.72153">
        <ele>93</ele>
        <time>2010-05-02T09:27:59Z</time>
      </trkpt>
      <trkpt lat="44.36871" lon="0.72142">
        <ele>93</ele>
        <time>2010-05-02T09:28:09Z</time>
      </trkpt>
      <trkpt lat="44.36878" lon="0.72137">
        <ele>93</ele>
        <time>2010-05-02T09:28:13Z</time>
      </trkpt>
      <trkpt lat="44.36897" lon="0.72125">
        <ele>92</ele>
        <time>2010-05-02T09:28:24Z</time>
      </trkpt>
      <trkpt lat="44.36907" lon="0.72119">
        <ele>92</ele>
        <time>2010-05-02T09:28:29Z</time>
      </trkpt>
      <trkpt lat="44.36933" lon="0.72102">
        <ele>92</ele>
        <time>2010-05-02T09:28:42Z</time>
      </trkpt>
      <trkpt lat="44.36959" lon="0.72086">
        <ele>93</ele>
        <time>2010-05-02T09:28:53Z</time>
      </trkpt>
      <trkpt lat="44.36989" lon="0.72086">
        <ele>93</ele>
        <time>2010-05-02T09:29:07Z</time>
      </trkpt>
      <trkpt lat="44.37001" lon="0.72097">
        <ele>94</ele>
        <time>2010-05-02T09:29:14Z</time>
      </trkpt>
      <trkpt lat="44.37022" lon="0.72114">
        <ele>95</ele>
        <time>2010-05-02T09:29:26Z</time>
      </trkpt>
      <trkpt lat="44.37048" lon="0.72134">
        <ele>96</ele>
        <time>2010-05-02T09:29:38Z</time>
      </trkpt>
      <trkpt lat="44.3705" lon="0.72136">
        <ele>96</ele>
        <time>2010-05-02T09:29:39Z</time>
      </trkpt>
      <trkpt lat="44.37057" lon="0.7214">
        <ele>96</ele>
        <time>2010-05-02T09:29:43Z</time>
      </trkpt>
      <trkpt lat="44.37076" lon="0.72129">
        <ele>96</ele>
        <time>2010-05-02T09:29:54Z</time>
      </trkpt>
      <trkpt lat="44.37083" lon="0.72124">
        <ele>96</ele>
        <time>2010-05-02T09:29:58Z</time>
      </trkpt>
      <trkpt lat="44.37091" lon="0.72114">
        <ele>100</ele>
        <time>2010-05-02T09:30:04Z</time>
      </trkpt>
      <trkpt lat="44.37117" lon="0.72087">
        <ele>100</ele>
        <time>2010-05-02T09:30:19Z</time>
      </trkpt>
      <trkpt lat="44.37155" lon="0.72047">
        <ele>98</ele>
        <time>2010-05-02T09:30:34Z</time>
      </trkpt>
      <trkpt lat="44.37166" lon="0.72043">
        <ele>98</ele>
        <time>2010-05-02T09:30:38Z</time>
      </trkpt>
      <trkpt lat="44.37172" lon="0.72048">
        <ele>103</ele>
        <time>2010-05-02T09:30:42Z</time>
      </trkpt>
      <trkpt lat="44.37185" lon="0.72065">
        <ele>104</ele>
        <time>2010-05-02T09:30:54Z</time>
      </trkpt>
      <trkpt lat="44.37186" lon="0.72066">
        <ele>104</ele>
        <time>2010-05-02T09:30:55Z</time>
      </trkpt>
      <trkpt lat="44.37189" lon="0.7207">
        <ele>104</ele>
        <time>2010-05-02T09:30:59Z</time>
      </trkpt>
      <trkpt lat="44.37204" lon="0.72085">
        <ele>109</ele>
        <time>2010-05-02T09:31:14Z</time>
      </trkpt>
      <trkpt lat="44.37216" lon="0.72097">
        <ele>110</ele>
        <time>2010-05-02T09:31:27Z</time>
      </trkpt>
      <trkpt lat="44.37226" lon="0.72108">
        <ele>111</ele>
        <time>2010-05-02T09:31:37Z</time>
      </trkpt>
      <trkpt lat="44.37231" lon="0.72115">
        <ele>111</ele>
        <time>2010-05-02T09:31:43Z</time>
      </trkpt>
      <trkpt lat="44.37238" lon="0.72122">
        <ele>112</ele>
        <time>2010-05-02T09:31:49Z</time>
      </trkpt>
      <trkpt lat="44.37256" lon="0.72141">
        <ele>120</ele>
        <time>2010-05-02T09:32:06Z</time>
      </trkpt>
      <trkpt lat="44.37265" lon="0.72151">
        <ele>120</ele>
        <time>2010-05-02T09:32:15Z</time>
      </trkpt>
      <trkpt lat="44.37271" lon="0.72158">
        <ele>121</ele>
        <time>2010-05-02T09:32:21Z</time>
      </trkpt>
      <trkpt lat="44.37278" lon="0.7216">
        <ele>122</ele>
        <time>2010-05-02T09:32:26Z</time>
      </trkpt>
      <trkpt lat="44.37298" lon="0.72125">
        <ele>123</ele>
        <time>2010-05-02T09:32:40Z</time>
      </trkpt>
      <trkpt lat="44.37308" lon="0.72099">
        <ele>123</ele>
        <time>2010-05-02T09:32:50Z</time>
      </trkpt>
      <trkpt lat="44.37315" lon="0.72075">
        <ele>120</ele>
        <time>2010-05-02T09:33:05Z</time>
      </trkpt>
      <trkpt lat="44.3732" lon="0.7206">
        <ele>119</ele>
        <time>2010-05-02T09:33:14Z</time>
      </trkpt>
      <trkpt lat="44.37338" lon="0.72033">
        <ele>125</ele>
        <time>2010-05-02T09:33:26Z</time>
      </trkpt>
      <trkpt lat="44.37343" lon="0.72022">
        <ele>124</ele>
        <time>2010-05-02T09:33:37Z</time>
      </trkpt>
      <trkpt lat="44.37343" lon="0.72022">
        <ele>124</ele>
        <time>2010-05-02T09:34:03Z</time>
      </trkpt>
      <trkpt lat="44.37361" lon="0.72006">
        <ele>125</ele>
        <time>2010-05-02T09:34:14Z</time>
      </trkpt>
      <trkpt lat="44.37365" lon="0.72003">
        <ele>126</ele>
        <time>2010-05-02T09:34:16Z</time>
      </trkpt>
      <trkpt lat="44.37398" lon="0.71992">
        <ele>125</ele>
        <time>2010-05-02T09:34:28Z</time>
      </trkpt>
      <trkpt lat="44.37428" lon="0.71989">
        <ele>130</ele>
        <time>2010-05-02T09:34:38Z</time>
      </trkpt>
      <trkpt lat="44.37444" lon="0.71982">
        <ele>129</ele>
        <time>2010-05-02T09:34:44Z</time>
      </trkpt>
      <trkpt lat="44.37479" lon="0.71952">
        <ele>126</ele>
        <time>2010-05-02T09:34:55Z</time>
      </trkpt>
      <trkpt lat="44.37499" lon="0.71947">
        <ele>126</ele>
        <time>2010-05-02T09:34:59Z</time>
      </trkpt>
      <trkpt lat="44.37539" lon="0.71951">
        <ele>126</ele>
        <time>2010-05-02T09:35:08Z</time>
      </trkpt>
      <trkpt lat="44.37567" lon="0.71975">
        <ele>128</ele>
        <time>2010-05-02T09:35:19Z</time>
      </trkpt>
      <trkpt lat="44.37598" lon="0.71979">
        <ele>125</ele>
        <time>2010-05-02T09:35:29Z</time>
      </trkpt>
      <trkpt lat="44.37607" lon="0.71979">
        <ele>124</ele>
        <time>2010-05-02T09:35:31Z</time>
      </trkpt>
      <trkpt lat="44.37676" lon="0.71978">
        <ele>116</ele>
        <time>2010-05-02T09:35:41Z</time>
      </trkpt>
      <trkpt lat="44.37683" lon="0.71977">
        <ele>116</ele>
        <time>2010-05-02T09:35:42Z</time>
      </trkpt>
      <trkpt lat="44.37721" lon="0.71964">
        <ele>112</ele>
        <time>2010-05-02T09:35:47Z</time>
      </trkpt>
      <trkpt lat="44.37741" lon="0.71953">
        <ele>110</ele>
        <time>2010-05-02T09:35:50Z</time>
      </trkpt>
      <trkpt lat="44.37752" lon="0.71946">
        <ele>107</ele>
        <time>2010-05-02T09:35:52Z</time>
      </trkpt>
      <trkpt lat="44.37789" lon="0.71939">
        <ele>107</ele>
        <time>2010-05-02T09:36:00Z</time>
      </trkpt>
      <trkpt lat="44.37808" lon="0.71931">
        <ele>107</ele>
        <time>2010-05-02T09:36:06Z</time>
      </trkpt>
      <trkpt lat="44.37827" lon="0.71926">
        <ele>107</ele>
        <time>2010-05-02T09:36:11Z</time>
      </trkpt>
      <trkpt lat="44.37871" lon="0.71928">
        <ele>108</ele>
        <time>2010-05-02T09:36:22Z</time>
      </trkpt>
      <trkpt lat="44.37886" lon="0.7193">
        <ele>108</ele>
        <time>2010-05-02T09:36:25Z</time>
      </trkpt>
      <trkpt lat="44.37918" lon="0.71936">
        <ele>106</ele>
        <time>2010-05-02T09:36:35Z</time>
      </trkpt>
      <trkpt lat="44.37951" lon="0.71913">
        <ele>103</ele>
        <time>2010-05-02T09:36:46Z</time>
      </trkpt>
      <trkpt lat="44.37982" lon="0.71886">
        <ele>102</ele>
        <time>2010-05-02T09:36:54Z</time>
      </trkpt>
      <trkpt lat="44.37997" lon="0.7187">
        <ele>101</ele>
        <time>2010-05-02T09:36:57Z</time>
      </trkpt>
      <trkpt lat="44.38033" lon="0.71781">
        <ele>94</ele>
        <time>2010-05-02T09:37:06Z</time>
      </trkpt>
      <trkpt lat="44.38052" lon="0.71781">
        <ele>94</ele>
        <time>2010-05-02T09:37:12Z</time>
      </trkpt>
      <trkpt lat="44.38087" lon="0.71815">
        <ele>94</ele>
        <time>2010-05-02T09:37:19Z</time>
      </trkpt>
      <trkpt lat="44.38104" lon="0.71814">
        <ele>93</ele>
        <time>2010-05-02T09:37:23Z</time>
      </trkpt>
      <trkpt lat="44.38135" lon="0.7181">
        <ele>92</ele>
        <time>2010-05-02T09:37:30Z</time>
      </trkpt>
      <trkpt lat="44.38168" lon="0.71837">
        <ele>94</ele>
        <time>2010-05-02T09:37:41Z</time>
      </trkpt>
      <trkpt lat="44.38178" lon="0.71842">
        <ele>96</ele>
        <time>2010-05-02T09:37:45Z</time>
      </trkpt>
      <trkpt lat="44.38194" lon="0.71828">
        <ele>93</ele>
        <time>2010-05-02T09:37:54Z</time>
      </trkpt>
      <trkpt lat="44.38201" lon="0.71817">
        <ele>93</ele>
        <time>2010-05-02T09:38:05Z</time>
      </trkpt>
      <trkpt lat="44.38198" lon="0.71824">
        <ele>93</ele>
        <time>2010-05-02T09:38:13Z</time>
      </trkpt>
      <trkpt lat="44.38199" lon="0.71819">
        <ele>93</ele>
        <time>2010-05-02T09:38:15Z</time>
      </trkpt>
      <trkpt lat="44.38219" lon="0.71785">
        <ele>93</ele>
        <time>2010-05-02T09:38:25Z</time>
      </trkpt>
      <trkpt lat="44.38232" lon="0.71762">
        <ele>92</ele>
        <time>2010-05-02T09:38:32Z</time>
      </trkpt>
      <trkpt lat="44.38265" lon="0.7171">
        <ele>92</ele>
        <time>2010-05-02T09:38:45Z</time>
      </trkpt>
      <trkpt lat="44.38283" lon="0.71692">
        <ele>92</ele>
        <time>2010-05-02T09:38:52Z</time>
      </trkpt>
      <trkpt lat="44.38316" lon="0.71661">
        <ele>90</ele>
        <time>2010-05-02T09:39:03Z</time>
      </trkpt>
      <trkpt lat="44.38329" lon="0.71649">
        <ele>90</ele>
        <time>2010-05-02T09:39:07Z</time>
      </trkpt>
      <trkpt lat="44.38383" lon="0.71599">
        <ele>89</ele>
        <time>2010-05-02T09:39:17Z</time>
      </trkpt>
      <trkpt lat="44.3844" lon="0.71578">
        <ele>83</ele>
        <time>2010-05-02T09:39:25Z</time>
      </trkpt>
      <trkpt lat="44.38533" lon="0.71535">
        <ele>80</ele>
        <time>2010-05-02T09:39:38Z</time>
      </trkpt>
      <trkpt lat="44.38542" lon="0.71532">
        <ele>80</ele>
        <time>2010-05-02T09:39:39Z</time>
      </trkpt>
      <trkpt lat="44.38632" lon="0.71492">
        <ele>76</ele>
        <time>2010-05-02T09:39:50Z</time>
      </trkpt>
      <trkpt lat="44.38647" lon="0.71486">
        <ele>76</ele>
        <time>2010-05-02T09:39:52Z</time>
      </trkpt>
      <trkpt lat="44.38687" lon="0.71486">
        <ele>75</ele>
        <time>2010-05-02T09:39:57Z</time>
      </trkpt>
      <trkpt lat="44.38777" lon="0.71516">
        <ele>73</ele>
        <time>2010-05-02T09:40:09Z</time>
      </trkpt>
      <trkpt lat="44.38813" lon="0.71527">
        <ele>72</ele>
        <time>2010-05-02T09:40:14Z</time>
      </trkpt>
      <trkpt lat="44.38826" lon="0.71532">
        <ele>72</ele>
        <time>2010-05-02T09:40:16Z</time>
      </trkpt>
      <trkpt lat="44.38838" lon="0.71535">
        <ele>70</ele>
        <time>2010-05-02T09:40:18Z</time>
      </trkpt>
      <trkpt lat="44.38869" lon="0.71541">
        <ele>70</ele>
        <time>2010-05-02T09:40:23Z</time>
      </trkpt>
      <trkpt lat="44.38885" lon="0.71527">
        <ele>70</ele>
        <time>2010-05-02T09:40:28Z</time>
      </trkpt>
      <trkpt lat="44.38878" lon="0.71493">
        <ele>68</ele>
        <time>2010-05-02T09:40:35Z</time>
      </trkpt>
      <trkpt lat="44.38846" lon="0.71469">
        <ele>68</ele>
        <time>2010-05-02T09:40:44Z</time>
      </trkpt>
      <trkpt lat="44.38829" lon="0.7147">
        <ele>70</ele>
        <time>2010-05-02T09:40:48Z</time>
      </trkpt>
      <trkpt lat="44.38787" lon="0.71459">
        <ele>70</ele>
        <time>2010-05-02T09:40:59Z</time>
      </trkpt>
      <trkpt lat="44.38767" lon="0.71442">
        <ele>71</ele>
        <time>2010-05-02T09:41:05Z</time>
      </trkpt>
      <trkpt lat="44.38764" lon="0.7142">
        <ele>71</ele>
        <time>2010-05-02T09:41:09Z</time>
      </trkpt>
      <trkpt lat="44.38765" lon="0.71369">
        <ele>71</ele>
        <time>2010-05-02T09:41:22Z</time>
      </trkpt>
      <trkpt lat="44.38764" lon="0.7133">
        <ele>72</ele>
        <time>2010-05-02T09:41:35Z</time>
      </trkpt>
      <trkpt lat="44.38765" lon="0.71328">
        <ele>72</ele>
        <time>2010-05-02T09:41:36Z</time>
      </trkpt>
      <trkpt lat="44.38792" lon="0.71322">
        <ele>73</ele>
        <time>2010-05-02T09:41:49Z</time>
      </trkpt>
      <trkpt lat="44.38803" lon="0.71316">
        <ele>72</ele>
        <time>2010-05-02T09:41:55Z</time>
      </trkpt>
      <trkpt lat="44.38811" lon="0.71309">
        <ele>73</ele>
        <time>2010-05-02T09:42:08Z</time>
      </trkpt>
      <trkpt lat="44.3881" lon="0.71309">
        <ele>73</ele>
        <time>2010-05-02T09:42:27Z</time>
      </trkpt>
      <trkpt lat="44.38809" lon="0.71309">
        <ele>73</ele>
        <time>2010-05-02T09:42:54Z</time>
      </trkpt>
      <trkpt lat="44.38809" lon="0.7131">
        <ele>73</ele>
        <time>2010-05-02T09:43:11Z</time>
      </trkpt>
      <trkpt lat="44.38835" lon="0.71312">
        <ele>72</ele>
        <time>2010-05-02T09:43:22Z</time>
      </trkpt>
      <trkpt lat="44.38861" lon="0.71282">
        <ele>73</ele>
        <time>2010-05-02T09:43:33Z</time>
      </trkpt>
      <trkpt lat="44.38867" lon="0.71236">
        <ele>77</ele>
        <time>2010-05-02T09:43:44Z</time>
      </trkpt>
      <trkpt lat="44.38898" lon="0.71191">
        <ele>78</ele>
        <time>2010-05-02T09:43:58Z</time>
      </trkpt>
      <trkpt lat="44.38909" lon="0.71181">
        <ele>79</ele>
        <time>2010-05-02T09:44:01Z</time>
      </trkpt>
      <trkpt lat="44.38989" lon="0.7114">
        <ele>78</ele>
        <time>2010-05-02T09:44:17Z</time>
      </trkpt>
      <trkpt lat="44.39063" lon="0.71103">
        <ele>74</ele>
        <time>2010-05-02T09:44:31Z</time>
      </trkpt>
      <trkpt lat="44.39114" lon="0.71077">
        <ele>72</ele>
        <time>2010-05-02T09:44:42Z</time>
      </trkpt>
      <trkpt lat="44.3916" lon="0.71061">
        <ele>72</ele>
        <time>2010-05-02T09:44:52Z</time>
      </trkpt>
      <trkpt lat="44.3916" lon="0.71036">
        <ele>72</ele>
        <time>2010-05-02T09:44:57Z</time>
      </trkpt>
      <trkpt lat="44.39161" lon="0.70966">
        <ele>72</ele>
        <time>2010-05-02T09:45:07Z</time>
      </trkpt>
      <trkpt lat="44.39146" lon="0.70915">
        <ele>72</ele>
        <time>2010-05-02T09:45:15Z</time>
      </trkpt>
      <trkpt lat="44.39143" lon="0.70903">
        <ele>72</ele>
        <time>2010-05-02T09:45:17Z</time>
      </trkpt>
      <trkpt lat="44.39142" lon="0.70877">
        <ele>72</ele>
        <time>2010-05-02T09:45:21Z</time>
      </trkpt>
      <trkpt lat="44.39131" lon="0.70842">
        <ele>72</ele>
        <time>2010-05-02T09:45:27Z</time>
      </trkpt>
      <trkpt lat="44.39122" lon="0.70836">
        <ele>72</ele>
        <time>2010-05-02T09:45:29Z</time>
      </trkpt>
      <trkpt lat="44.39111" lon="0.70784">
        <ele>73</ele>
        <time>2010-05-02T09:45:37Z</time>
      </trkpt>
      <trkpt lat="44.39121" lon="0.70774">
        <ele>72</ele>
        <time>2010-05-02T09:45:39Z</time>
      </trkpt>
      <trkpt lat="44.39179" lon="0.70747">
        <ele>69</ele>
        <time>2010-05-02T09:45:50Z</time>
      </trkpt>
      <trkpt lat="44.39205" lon="0.70689">
        <ele>69</ele>
        <time>2010-05-02T09:46:00Z</time>
      </trkpt>
      <trkpt lat="44.39211" lon="0.70671">
        <ele>69</ele>
        <time>2010-05-02T09:46:03Z</time>
      </trkpt>
      <trkpt lat="44.39235" lon="0.70595">
        <ele>69</ele>
        <time>2010-05-02T09:46:15Z</time>
      </trkpt>
      <trkpt lat="44.3925" lon="0.70548">
        <ele>68</ele>
        <time>2010-05-02T09:46:26Z</time>
      </trkpt>
      <trkpt lat="44.39251" lon="0.70543">
        <ele>68</ele>
        <time>2010-05-02T09:46:27Z</time>
      </trkpt>
      <trkpt lat="44.39254" lon="0.70527">
        <ele>68</ele>
        <time>2010-05-02T09:46:30Z</time>
      </trkpt>
      <trkpt lat="44.3927" lon="0.70445">
        <ele>68</ele>
        <time>2010-05-02T09:46:44Z</time>
      </trkpt>
      <trkpt lat="44.39275" lon="0.70414">
        <ele>69</ele>
        <time>2010-05-02T09:46:49Z</time>
      </trkpt>
      <trkpt lat="44.39277" lon="0.70397">
        <ele>69</ele>
        <time>2010-05-02T09:46:52Z</time>
      </trkpt>
      <trkpt lat="44.39277" lon="0.70373">
        <ele>70</ele>
        <time>2010-05-02T09:46:56Z</time>
      </trkpt>
      <trkpt lat="44.39278" lon="0.70342">
        <ele>70</ele>
        <time>2010-05-02T09:47:01Z</time>
      </trkpt>
      <trkpt lat="44.39276" lon="0.70266">
        <ele>71</ele>
        <time>2010-05-02T09:47:15Z</time>
      </trkpt>
      <trkpt lat="44.39285" lon="0.7022">
        <ele>71</ele>
        <time>2010-05-02T09:47:25Z</time>
      </trkpt>
      <trkpt lat="44.39282" lon="0.70203">
        <ele>71</ele>
        <time>2010-05-02T09:47:29Z</time>
      </trkpt>
      <trkpt lat="44.39235" lon="0.70185">
        <ele>73</ele>
        <time>2010-05-02T09:47:44Z</time>
      </trkpt>
      <trkpt lat="44.39193" lon="0.70174">
        <ele>75</ele>
        <time>2010-05-02T09:47:57Z</time>
      </trkpt>
      <trkpt lat="44.39185" lon="0.70167">
        <ele>75</ele>
        <time>2010-05-02T09:48:00Z</time>
      </trkpt>
      <trkpt lat="44.39184" lon="0.70151">
        <ele>75</ele>
        <time>2010-05-02T09:48:05Z</time>
      </trkpt>
      <trkpt lat="44.39195" lon="0.70069">
        <ele>76</ele>
        <time>2010-05-02T09:48:23Z</time>
      </trkpt>
      <trkpt lat="44.39189" lon="0.70008">
        <ele>77</ele>
        <time>2010-05-02T09:48:36Z</time>
      </trkpt>
      <trkpt lat="44.39188" lon="0.70004">
        <ele>77</ele>
        <time>2010-05-02T09:48:37Z</time>
      </trkpt>
      <trkpt lat="44.39203" lon="0.69966">
        <ele>77</ele>
        <time>2010-05-02T09:48:46Z</time>
      </trkpt>
      <trkpt lat="44.39208" lon="0.6994">
        <ele>77</ele>
        <time>2010-05-02T09:48:51Z</time>
      </trkpt>
      <trkpt lat="44.39216" lon="0.69876">
        <ele>77</ele>
        <time>2010-05-02T09:49:04Z</time>
      </trkpt>
      <trkpt lat="44.39223" lon="0.6983">
        <ele>76</ele>
        <time>2010-05-02T09:49:15Z</time>
      </trkpt>
      <trkpt lat="44.39223" lon="0.69828">
        <ele>76</ele>
        <time>2010-05-02T09:49:16Z</time>
      </trkpt>
      <trkpt lat="44.39222" lon="0.69825">
        <ele>76</ele>
        <time>2010-05-02T09:49:31Z</time>
      </trkpt>
      <trkpt lat="44.39222" lon="0.69824">
        <ele>76</ele>
        <time>2010-05-02T09:50:22Z</time>
      </trkpt>
      <trkpt lat="44.39221" lon="0.69823">
        <ele>76</ele>
        <time>2010-05-02T09:50:35Z</time>
      </trkpt>
      <trkpt lat="44.39203" lon="0.69813">
        <ele>77</ele>
        <time>2010-05-02T09:50:45Z</time>
      </trkpt>
      <trkpt lat="44.39199" lon="0.69795">
        <ele>77</ele>
        <time>2010-05-02T09:50:50Z</time>
      </trkpt>
      <trkpt lat="44.39207" lon="0.69732">
        <ele>77</ele>
        <time>2010-05-02T09:51:05Z</time>
      </trkpt>
      <trkpt lat="44.39211" lon="0.69655">
        <ele>77</ele>
        <time>2010-05-02T09:51:22Z</time>
      </trkpt>
      <trkpt lat="44.3921" lon="0.696">
        <ele>77</ele>
        <time>2010-05-02T09:51:33Z</time>
      </trkpt>
      <trkpt lat="44.3921" lon="0.69556">
        <ele>76</ele>
        <time>2010-05-02T09:51:42Z</time>
      </trkpt>
      <trkpt lat="44.3921" lon="0.69546">
        <ele>76</ele>
        <time>2010-05-02T09:51:44Z</time>
      </trkpt>
      <trkpt lat="44.39207" lon="0.69524">
        <ele>76</ele>
        <time>2010-05-02T09:51:48Z</time>
      </trkpt>
      <trkpt lat="44.39203" lon="0.69431">
        <ele>77</ele>
        <time>2010-05-02T09:52:05Z</time>
      </trkpt>
      <trkpt lat="44.39212" lon="0.69354">
        <ele>77</ele>
        <time>2010-05-02T09:52:21Z</time>
      </trkpt>
      <trkpt lat="44.39218" lon="0.69334">
        <ele>77</ele>
        <time>2010-05-02T09:52:27Z</time>
      </trkpt>
      <trkpt lat="44.39233" lon="0.69335">
        <ele>77</ele>
        <time>2010-05-02T09:52:32Z</time>
      </trkpt>
      <trkpt lat="44.39248" lon="0.69342">
        <ele>76</ele>
        <time>2010-05-02T09:52:36Z</time>
      </trkpt>
      <trkpt lat="44.39269" lon="0.69353">
        <ele>75</ele>
        <time>2010-05-02T09:52:41Z</time>
      </trkpt>
      <trkpt lat="44.39299" lon="0.69362">
        <ele>74</ele>
        <time>2010-05-02T09:52:47Z</time>
      </trkpt>
      <trkpt lat="44.3933" lon="0.69371">
        <ele>74</ele>
        <time>2010-05-02T09:52:53Z</time>
      </trkpt>
      <trkpt lat="44.39353" lon="0.69376">
        <ele>72</ele>
        <time>2010-05-02T09:52:58Z</time>
      </trkpt>
      <trkpt lat="44.39369" lon="0.69349">
        <ele>71</ele>
        <time>2010-05-02T09:53:05Z</time>
      </trkpt>
      <trkpt lat="44.39383" lon="0.69341">
        <ele>71</ele>
        <time>2010-05-02T09:53:09Z</time>
      </trkpt>
      <trkpt lat="44.39418" lon="0.69347">
        <ele>69</ele>
        <time>2010-05-02T09:53:15Z</time>
      </trkpt>
      <trkpt lat="44.39442" lon="0.69377">
        <ele>69</ele>
        <time>2010-05-02T09:53:22Z</time>
      </trkpt>
      <trkpt lat="44.39441" lon="0.69384">
        <ele>69</ele>
        <time>2010-05-02T09:53:23Z</time>
      </trkpt>
      <trkpt lat="44.39439" lon="0.69397">
        <ele>69</ele>
        <time>2010-05-02T09:53:25Z</time>
      </trkpt>
      <trkpt lat="44.39443" lon="0.69425">
        <ele>69</ele>
        <time>2010-05-02T09:53:29Z</time>
      </trkpt>
      <trkpt lat="44.39462" lon="0.69433">
        <ele>69</ele>
        <time>2010-05-02T09:53:36Z</time>
      </trkpt>
      <trkpt lat="44.39473" lon="0.69418">
        <ele>69</ele>
        <time>2010-05-02T09:53:40Z</time>
      </trkpt>
      <trkpt lat="44.39488" lon="0.69419">
        <ele>68</ele>
        <time>2010-05-02T09:53:44Z</time>
      </trkpt>
      <trkpt lat="44.3951" lon="0.69422">
        <ele>68</ele>
        <time>2010-05-02T09:53:49Z</time>
      </trkpt>
      <trkpt lat="44.39527" lon="0.69421">
        <ele>68</ele>
        <time>2010-05-02T09:53:53Z</time>
      </trkpt>
      <trkpt lat="44.39551" lon="0.69422">
        <ele>67</ele>
        <time>2010-05-02T09:53:58Z</time>
      </trkpt>
      <trkpt lat="44.39583" lon="0.69419">
        <ele>66</ele>
        <time>2010-05-02T09:54:05Z</time>
      </trkpt>
      <trkpt lat="44.39589" lon="0.69405">
        <ele>66</ele>
        <time>2010-05-02T09:54:09Z</time>
      </trkpt>
      <trkpt lat="44.39577" lon="0.69289">
        <ele>65</ele>
        <time>2010-05-02T09:54:27Z</time>
      </trkpt>
      <trkpt lat="44.39575" lon="0.69276">
        <ele>65</ele>
        <time>2010-05-02T09:54:29Z</time>
      </trkpt>
      <trkpt lat="44.39567" lon="0.69252">
        <ele>65</ele>
        <time>2010-05-02T09:54:33Z</time>
      </trkpt>
      <trkpt lat="44.39556" lon="0.69211">
        <ele>66</ele>
        <time>2010-05-02T09:54:40Z</time>
      </trkpt>
      <trkpt lat="44.39534" lon="0.69113">
        <ele>67</ele>
        <time>2010-05-02T09:54:53Z</time>
      </trkpt>
      <trkpt lat="44.39525" lon="0.69072">
        <ele>68</ele>
        <time>2010-05-02T09:54:59Z</time>
      </trkpt>
      <trkpt lat="44.39507" lon="0.68982">
        <ele>68</ele>
        <time>2010-05-02T09:55:14Z</time>
      </trkpt>
      <trkpt lat="44.39506" lon="0.68977">
        <ele>68</ele>
        <time>2010-05-02T09:55:15Z</time>
      </trkpt>
      <trkpt lat="44.39493" lon="0.68895">
        <ele>67</ele>
        <time>2010-05-02T09:55:29Z</time>
      </trkpt>
      <trkpt lat="44.39479" lon="0.68884">
        <ele>68</ele>
        <time>2010-05-02T09:55:34Z</time>
      </trkpt>
      <trkpt lat="44.39463" lon="0.68882">
        <ele>68</ele>
        <time>2010-05-02T09:55:39Z</time>
      </trkpt>
      <trkpt lat="44.39444" lon="0.68866">
        <ele>68</ele>
        <time>2010-05-02T09:55:45Z</time>
      </trkpt>
      <trkpt lat="44.39431" lon="0.68816">
        <ele>69</ele>
        <time>2010-05-02T09:55:57Z</time>
      </trkpt>
      <trkpt lat="44.39431" lon="0.68809">
        <ele>69</ele>
        <time>2010-05-02T09:55:59Z</time>
      </trkpt>
      <trkpt lat="44.39428" lon="0.68806">
        <ele>69</ele>
        <time>2010-05-02T09:56:11Z</time>
      </trkpt>
      <trkpt lat="44.39426" lon="0.68804">
        <ele>69</ele>
        <time>2010-05-02T09:56:44Z</time>
      </trkpt>
      <trkpt lat="44.39425" lon="0.68803">
        <ele>69</ele>
        <time>2010-05-02T09:57:18Z</time>
      </trkpt>
      <trkpt lat="44.39425" lon="0.68803">
        <ele>69</ele>
        <time>2010-05-02T09:57:30Z</time>
      </trkpt>
      <trkpt lat="44.39426" lon="0.68805">
        <ele>69</ele>
        <time>2010-05-02T09:57:38Z</time>
      </trkpt>
    </trkseg>
  </trk>
</gpx>